<?xml version="1.0" encoding="UTF-8" standalone="no" ?>
<gpx xmlns="http://www.topografix.com/GPX/1/1" xmlns:xsi="http://www.w3.org/2001/XMLSchema-instance" xsi:schemaLocation="http://www.topografix.com/GPX/1/1 http://www.topografix.com/GPX/1/1/gpx.xsd" version="1.1" creator="VisuGPX - https://www.visugpx.com">
  <metadata>
    <name>Viplaix, L\'Arnon</name>
    <desc><![CDATA[petite balada sympa, beaucoup de chemins herbeux, pas trop de goudron]]></desc>
  </metadata>
  <trk>
    <name><![CDATA[2014-10-22 Viplaix 001]]></name>
    <trkseg>
      <trkpt lat="46.46076" lon="2.37849">
        <ele>347.65</ele>
        <time>2014-10-22T11:35:42Z</time>
      </trkpt>
      <trkpt lat="46.4608" lon="2.37858">
        <ele>347.65</ele>
        <time>2014-10-22T11:36:53Z</time>
      </trkpt>
      <trkpt lat="46.46083" lon="2.37883">
        <ele>347.65</ele>
        <time>2014-10-22T11:37:22Z</time>
      </trkpt>
      <trkpt lat="46.46072" lon="2.37907">
        <ele>347.65</ele>
        <time>2014-10-22T11:37:38Z</time>
      </trkpt>
      <trkpt lat="46.46067" lon="2.37923">
        <ele>347.65</ele>
        <time>2014-10-22T11:37:46Z</time>
      </trkpt>
      <trkpt lat="46.46062" lon="2.37937">
        <ele>347.65</ele>
        <time>2014-10-22T11:38:14Z</time>
      </trkpt>
      <trkpt lat="46.46058" lon="2.37952">
        <ele>347.65</ele>
        <time>2014-10-22T11:38:23Z</time>
      </trkpt>
      <trkpt lat="46.46052" lon="2.37975">
        <ele>346.69</ele>
        <time>2014-10-22T11:38:38Z</time>
      </trkpt>
      <trkpt lat="46.46041" lon="2.38006">
        <ele>346.69</ele>
        <time>2014-10-22T11:38:56Z</time>
      </trkpt>
      <trkpt lat="46.46034" lon="2.38021">
        <ele>346.21</ele>
        <time>2014-10-22T11:39:11Z</time>
      </trkpt>
      <trkpt lat="46.46026" lon="2.3804">
        <ele>346.21</ele>
        <time>2014-10-22T11:39:36Z</time>
      </trkpt>
      <trkpt lat="46.46015" lon="2.38061">
        <ele>346.21</ele>
        <time>2014-10-22T11:39:52Z</time>
      </trkpt>
      <trkpt lat="46.46011" lon="2.38077">
        <ele>346.21</ele>
        <time>2014-10-22T11:40:06Z</time>
      </trkpt>
      <trkpt lat="46.46" lon="2.38094">
        <ele>346.21</ele>
        <time>2014-10-22T11:40:18Z</time>
      </trkpt>
      <trkpt lat="46.45986" lon="2.38131">
        <ele>346.21</ele>
        <time>2014-10-22T11:40:40Z</time>
      </trkpt>
      <trkpt lat="46.45974" lon="2.38154">
        <ele>346.21</ele>
        <time>2014-10-22T11:40:55Z</time>
      </trkpt>
      <trkpt lat="46.45967" lon="2.38177">
        <ele>346.21</ele>
        <time>2014-10-22T11:41:09Z</time>
      </trkpt>
      <trkpt lat="46.4596" lon="2.38189">
        <ele>347.65</ele>
        <time>2014-10-22T11:41:28Z</time>
      </trkpt>
      <trkpt lat="46.45953" lon="2.382">
        <ele>347.65</ele>
        <time>2014-10-22T11:41:37Z</time>
      </trkpt>
      <trkpt lat="46.45942" lon="2.3823">
        <ele>347.65</ele>
        <time>2014-10-22T11:41:51Z</time>
      </trkpt>
      <trkpt lat="46.45934" lon="2.38249">
        <ele>347.65</ele>
        <time>2014-10-22T11:42:04Z</time>
      </trkpt>
      <trkpt lat="46.45927" lon="2.38268">
        <ele>348.13</ele>
        <time>2014-10-22T11:42:15Z</time>
      </trkpt>
      <trkpt lat="46.45917" lon="2.38282">
        <ele>348.62</ele>
        <time>2014-10-22T11:42:26Z</time>
      </trkpt>
      <trkpt lat="46.45908" lon="2.38314">
        <ele>348.62</ele>
        <time>2014-10-22T11:42:47Z</time>
      </trkpt>
      <trkpt lat="46.45893" lon="2.38347">
        <ele>348.62</ele>
        <time>2014-10-22T11:43:06Z</time>
      </trkpt>
      <trkpt lat="46.45886" lon="2.38366">
        <ele>348.62</ele>
        <time>2014-10-22T11:43:22Z</time>
      </trkpt>
      <trkpt lat="46.45879" lon="2.38374">
        <ele>349.1</ele>
        <time>2014-10-22T11:44:00Z</time>
      </trkpt>
      <trkpt lat="46.45866" lon="2.38399">
        <ele>349.1</ele>
        <time>2014-10-22T11:44:18Z</time>
      </trkpt>
      <trkpt lat="46.45859" lon="2.38409">
        <ele>349.1</ele>
        <time>2014-10-22T11:44:37Z</time>
      </trkpt>
      <trkpt lat="46.4585" lon="2.38415">
        <ele>348.62</ele>
        <time>2014-10-22T11:45:26Z</time>
      </trkpt>
      <trkpt lat="46.45837" lon="2.38442">
        <ele>349.58</ele>
        <time>2014-10-22T11:45:44Z</time>
      </trkpt>
      <trkpt lat="46.45826" lon="2.38467">
        <ele>349.58</ele>
        <time>2014-10-22T11:46:00Z</time>
      </trkpt>
      <trkpt lat="46.45812" lon="2.38494">
        <ele>349.58</ele>
        <time>2014-10-22T11:46:17Z</time>
      </trkpt>
      <trkpt lat="46.45796" lon="2.38527">
        <ele>350.06</ele>
        <time>2014-10-22T11:46:36Z</time>
      </trkpt>
      <trkpt lat="46.45781" lon="2.38555">
        <ele>350.54</ele>
        <time>2014-10-22T11:46:55Z</time>
      </trkpt>
      <trkpt lat="46.45765" lon="2.38585">
        <ele>351.02</ele>
        <time>2014-10-22T11:47:13Z</time>
      </trkpt>
      <trkpt lat="46.45753" lon="2.38612">
        <ele>351.98</ele>
        <time>2014-10-22T11:47:32Z</time>
      </trkpt>
      <trkpt lat="46.4574" lon="2.38638">
        <ele>352.46</ele>
        <time>2014-10-22T11:47:49Z</time>
      </trkpt>
      <trkpt lat="46.4572" lon="2.38671">
        <ele>353.42</ele>
        <time>2014-10-22T11:48:12Z</time>
      </trkpt>
      <trkpt lat="46.45708" lon="2.38696">
        <ele>354.38</ele>
        <time>2014-10-22T11:48:30Z</time>
      </trkpt>
      <trkpt lat="46.45694" lon="2.38723">
        <ele>354.86</ele>
        <time>2014-10-22T11:48:48Z</time>
      </trkpt>
      <trkpt lat="46.4568" lon="2.38752">
        <ele>355.83</ele>
        <time>2014-10-22T11:49:06Z</time>
      </trkpt>
      <trkpt lat="46.45669" lon="2.38775">
        <ele>356.31</ele>
        <time>2014-10-22T11:49:22Z</time>
      </trkpt>
      <trkpt lat="46.45658" lon="2.38797">
        <ele>356.79</ele>
        <time>2014-10-22T11:49:37Z</time>
      </trkpt>
      <trkpt lat="46.4564" lon="2.38828">
        <ele>358.23</ele>
        <time>2014-10-22T11:49:58Z</time>
      </trkpt>
      <trkpt lat="46.45629" lon="2.3885">
        <ele>358.71</ele>
        <time>2014-10-22T11:50:13Z</time>
      </trkpt>
      <trkpt lat="46.45622" lon="2.38868">
        <ele>359.19</ele>
        <time>2014-10-22T11:50:24Z</time>
      </trkpt>
      <trkpt lat="46.45597" lon="2.38906">
        <ele>360.15</ele>
        <time>2014-10-22T11:50:51Z</time>
      </trkpt>
      <trkpt lat="46.45581" lon="2.38929">
        <ele>361.11</ele>
        <time>2014-10-22T11:51:08Z</time>
      </trkpt>
      <trkpt lat="46.45567" lon="2.38951">
        <ele>362.07</ele>
        <time>2014-10-22T11:51:24Z</time>
      </trkpt>
      <trkpt lat="46.45554" lon="2.38968">
        <ele>362.55</ele>
        <time>2014-10-22T11:51:39Z</time>
      </trkpt>
      <trkpt lat="46.45542" lon="2.3899">
        <ele>363.04</ele>
        <time>2014-10-22T11:51:54Z</time>
      </trkpt>
      <trkpt lat="46.45526" lon="2.39017">
        <ele>364</ele>
        <time>2014-10-22T11:52:12Z</time>
      </trkpt>
      <trkpt lat="46.45509" lon="2.39039">
        <ele>364.48</ele>
        <time>2014-10-22T11:52:28Z</time>
      </trkpt>
      <trkpt lat="46.4549" lon="2.39065">
        <ele>365.92</ele>
        <time>2014-10-22T11:52:48Z</time>
      </trkpt>
      <trkpt lat="46.45473" lon="2.39086">
        <ele>365.92</ele>
        <time>2014-10-22T11:53:04Z</time>
      </trkpt>
      <trkpt lat="46.45454" lon="2.39102">
        <ele>366.88</ele>
        <time>2014-10-22T11:53:19Z</time>
      </trkpt>
      <trkpt lat="46.45434" lon="2.39122">
        <ele>367.84</ele>
        <time>2014-10-22T11:53:36Z</time>
      </trkpt>
      <trkpt lat="46.45414" lon="2.39145">
        <ele>367.36</ele>
        <time>2014-10-22T11:53:53Z</time>
      </trkpt>
      <trkpt lat="46.45389" lon="2.39171">
        <ele>367.84</ele>
        <time>2014-10-22T11:54:14Z</time>
      </trkpt>
      <trkpt lat="46.45367" lon="2.39197">
        <ele>367.84</ele>
        <time>2014-10-22T11:54:33Z</time>
      </trkpt>
      <trkpt lat="46.45344" lon="2.39225">
        <ele>367.84</ele>
        <time>2014-10-22T11:54:53Z</time>
      </trkpt>
      <trkpt lat="46.45333" lon="2.39239">
        <ele>367.84</ele>
        <time>2014-10-22T11:55:04Z</time>
      </trkpt>
      <trkpt lat="46.45315" lon="2.39259">
        <ele>367.84</ele>
        <time>2014-10-22T11:55:25Z</time>
      </trkpt>
      <trkpt lat="46.45296" lon="2.39283">
        <ele>367.84</ele>
        <time>2014-10-22T11:55:52Z</time>
      </trkpt>
      <trkpt lat="46.45281" lon="2.393">
        <ele>367.84</ele>
        <time>2014-10-22T11:56:06Z</time>
      </trkpt>
      <trkpt lat="46.45264" lon="2.3932">
        <ele>367.84</ele>
        <time>2014-10-22T11:56:26Z</time>
      </trkpt>
      <trkpt lat="46.45243" lon="2.39344">
        <ele>367.84</ele>
        <time>2014-10-22T11:56:49Z</time>
      </trkpt>
      <trkpt lat="46.45218" lon="2.39373">
        <ele>367.36</ele>
        <time>2014-10-22T11:57:12Z</time>
      </trkpt>
      <trkpt lat="46.45194" lon="2.39391">
        <ele>367.84</ele>
        <time>2014-10-22T11:57:32Z</time>
      </trkpt>
      <trkpt lat="46.45179" lon="2.39353">
        <ele>367.84</ele>
        <time>2014-10-22T11:57:53Z</time>
      </trkpt>
      <trkpt lat="46.45162" lon="2.39312">
        <ele>367.84</ele>
        <time>2014-10-22T11:58:16Z</time>
      </trkpt>
      <trkpt lat="46.45152" lon="2.39286">
        <ele>366.4</ele>
        <time>2014-10-22T11:58:30Z</time>
      </trkpt>
      <trkpt lat="46.45147" lon="2.39276">
        <ele>366.4</ele>
        <time>2014-10-22T11:58:50Z</time>
      </trkpt>
      <trkpt lat="46.45145" lon="2.39266">
        <ele>364.96</ele>
        <time>2014-10-22T11:59:49Z</time>
      </trkpt>
      <trkpt lat="46.4513" lon="2.39229">
        <ele>364.48</ele>
        <time>2014-10-22T12:00:09Z</time>
      </trkpt>
      <trkpt lat="46.45115" lon="2.39194">
        <ele>362.55</ele>
        <time>2014-10-22T12:00:28Z</time>
      </trkpt>
      <trkpt lat="46.45109" lon="2.39176">
        <ele>364</ele>
        <time>2014-10-22T12:00:42Z</time>
      </trkpt>
      <trkpt lat="46.45096" lon="2.39142">
        <ele>363.52</ele>
        <time>2014-10-22T12:01:01Z</time>
      </trkpt>
      <trkpt lat="46.45078" lon="2.39097">
        <ele>362.07</ele>
        <time>2014-10-22T12:01:25Z</time>
      </trkpt>
      <trkpt lat="46.45061" lon="2.39056">
        <ele>361.11</ele>
        <time>2014-10-22T12:01:47Z</time>
      </trkpt>
      <trkpt lat="46.45048" lon="2.39022">
        <ele>361.11</ele>
        <time>2014-10-22T12:02:08Z</time>
      </trkpt>
      <trkpt lat="46.45039" lon="2.38999">
        <ele>361.11</ele>
        <time>2014-10-22T12:02:23Z</time>
      </trkpt>
      <trkpt lat="46.45026" lon="2.38966">
        <ele>360.63</ele>
        <time>2014-10-22T12:02:41Z</time>
      </trkpt>
      <trkpt lat="46.45015" lon="2.38936">
        <ele>360.63</ele>
        <time>2014-10-22T12:02:59Z</time>
      </trkpt>
      <trkpt lat="46.45006" lon="2.38912">
        <ele>359.67</ele>
        <time>2014-10-22T12:03:16Z</time>
      </trkpt>
      <trkpt lat="46.44989" lon="2.38875">
        <ele>359.67</ele>
        <time>2014-10-22T12:03:37Z</time>
      </trkpt>
      <trkpt lat="46.44973" lon="2.38834">
        <ele>360.63</ele>
        <time>2014-10-22T12:04:00Z</time>
      </trkpt>
      <trkpt lat="46.44959" lon="2.388">
        <ele>360.63</ele>
        <time>2014-10-22T12:04:20Z</time>
      </trkpt>
      <trkpt lat="46.44947" lon="2.38768">
        <ele>360.63</ele>
        <time>2014-10-22T12:04:38Z</time>
      </trkpt>
      <trkpt lat="46.44934" lon="2.38732">
        <ele>362.07</ele>
        <time>2014-10-22T12:04:59Z</time>
      </trkpt>
      <trkpt lat="46.44921" lon="2.38698">
        <ele>361.59</ele>
        <time>2014-10-22T12:05:17Z</time>
      </trkpt>
      <trkpt lat="46.44907" lon="2.38663">
        <ele>361.59</ele>
        <time>2014-10-22T12:05:37Z</time>
      </trkpt>
      <trkpt lat="46.4489" lon="2.38618">
        <ele>362.07</ele>
        <time>2014-10-22T12:06:02Z</time>
      </trkpt>
      <trkpt lat="46.44879" lon="2.38587">
        <ele>362.07</ele>
        <time>2014-10-22T12:06:21Z</time>
      </trkpt>
      <trkpt lat="46.44867" lon="2.38558">
        <ele>362.07</ele>
        <time>2014-10-22T12:06:37Z</time>
      </trkpt>
      <trkpt lat="46.44854" lon="2.38523">
        <ele>362.07</ele>
        <time>2014-10-22T12:06:56Z</time>
      </trkpt>
      <trkpt lat="46.44832" lon="2.38473">
        <ele>361.11</ele>
        <time>2014-10-22T12:07:22Z</time>
      </trkpt>
      <trkpt lat="46.44809" lon="2.38431">
        <ele>361.11</ele>
        <time>2014-10-22T12:07:47Z</time>
      </trkpt>
      <trkpt lat="46.44797" lon="2.38409">
        <ele>360.15</ele>
        <time>2014-10-22T12:08:04Z</time>
      </trkpt>
      <trkpt lat="46.44777" lon="2.38374">
        <ele>358.71</ele>
        <time>2014-10-22T12:08:26Z</time>
      </trkpt>
      <trkpt lat="46.44759" lon="2.38339">
        <ele>356.79</ele>
        <time>2014-10-22T12:08:47Z</time>
      </trkpt>
      <trkpt lat="46.44737" lon="2.38301">
        <ele>355.83</ele>
        <time>2014-10-22T12:09:10Z</time>
      </trkpt>
      <trkpt lat="46.44723" lon="2.38257">
        <ele>355.83</ele>
        <time>2014-10-22T12:09:32Z</time>
      </trkpt>
      <trkpt lat="46.44711" lon="2.38223">
        <ele>357.27</ele>
        <time>2014-10-22T12:09:49Z</time>
      </trkpt>
      <trkpt lat="46.44702" lon="2.38181">
        <ele>357.27</ele>
        <time>2014-10-22T12:10:09Z</time>
      </trkpt>
      <trkpt lat="46.44694" lon="2.38145">
        <ele>356.79</ele>
        <time>2014-10-22T12:10:27Z</time>
      </trkpt>
      <trkpt lat="46.44692" lon="2.38126">
        <ele>356.79</ele>
        <time>2014-10-22T12:10:37Z</time>
      </trkpt>
      <trkpt lat="46.44686" lon="2.38081">
        <ele>355.34</ele>
        <time>2014-10-22T12:11:24Z</time>
      </trkpt>
      <trkpt lat="46.44681" lon="2.38046">
        <ele>354.86</ele>
        <time>2014-10-22T12:11:41Z</time>
      </trkpt>
      <trkpt lat="46.44674" lon="2.38006">
        <ele>352.94</ele>
        <time>2014-10-22T12:12:01Z</time>
      </trkpt>
      <trkpt lat="46.44669" lon="2.37973">
        <ele>351.98</ele>
        <time>2014-10-22T12:12:18Z</time>
      </trkpt>
      <trkpt lat="46.44667" lon="2.37937">
        <ele>351.02</ele>
        <time>2014-10-22T12:12:36Z</time>
      </trkpt>
      <trkpt lat="46.44661" lon="2.37889">
        <ele>350.06</ele>
        <time>2014-10-22T12:12:59Z</time>
      </trkpt>
      <trkpt lat="46.44649" lon="2.37847">
        <ele>350.06</ele>
        <time>2014-10-22T12:13:20Z</time>
      </trkpt>
      <trkpt lat="46.44644" lon="2.37805">
        <ele>349.58</ele>
        <time>2014-10-22T12:13:41Z</time>
      </trkpt>
      <trkpt lat="46.4465" lon="2.3779">
        <ele>349.58</ele>
        <time>2014-10-22T12:13:50Z</time>
      </trkpt>
      <trkpt lat="46.44659" lon="2.37746">
        <ele>349.1</ele>
        <time>2014-10-22T12:14:13Z</time>
      </trkpt>
      <trkpt lat="46.44651" lon="2.37702">
        <ele>351.5</ele>
        <time>2014-10-22T12:14:36Z</time>
      </trkpt>
      <trkpt lat="46.44643" lon="2.37667">
        <ele>353.42</ele>
        <time>2014-10-22T12:14:54Z</time>
      </trkpt>
      <trkpt lat="46.44635" lon="2.37633">
        <ele>353.42</ele>
        <time>2014-10-22T12:15:13Z</time>
      </trkpt>
      <trkpt lat="46.44629" lon="2.37606">
        <ele>355.34</ele>
        <time>2014-10-22T12:15:30Z</time>
      </trkpt>
      <trkpt lat="46.44622" lon="2.37575">
        <ele>355.34</ele>
        <time>2014-10-22T12:15:47Z</time>
      </trkpt>
      <trkpt lat="46.44613" lon="2.37538">
        <ele>356.79</ele>
        <time>2014-10-22T12:16:07Z</time>
      </trkpt>
      <trkpt lat="46.44604" lon="2.37499">
        <ele>358.23</ele>
        <time>2014-10-22T12:16:27Z</time>
      </trkpt>
      <trkpt lat="46.44596" lon="2.37466">
        <ele>359.19</ele>
        <time>2014-10-22T12:16:44Z</time>
      </trkpt>
      <trkpt lat="46.44585" lon="2.37434">
        <ele>360.15</ele>
        <time>2014-10-22T12:17:03Z</time>
      </trkpt>
      <trkpt lat="46.44569" lon="2.37397">
        <ele>361.11</ele>
        <time>2014-10-22T12:17:24Z</time>
      </trkpt>
      <trkpt lat="46.44554" lon="2.37366">
        <ele>362.07</ele>
        <time>2014-10-22T12:17:42Z</time>
      </trkpt>
      <trkpt lat="46.44538" lon="2.37336">
        <ele>363.04</ele>
        <time>2014-10-22T12:18:00Z</time>
      </trkpt>
      <trkpt lat="46.44525" lon="2.37308">
        <ele>364</ele>
        <time>2014-10-22T12:18:16Z</time>
      </trkpt>
      <trkpt lat="46.4451" lon="2.37284">
        <ele>364.96</ele>
        <time>2014-10-22T12:18:33Z</time>
      </trkpt>
      <trkpt lat="46.44498" lon="2.37263">
        <ele>364.96</ele>
        <time>2014-10-22T12:18:49Z</time>
      </trkpt>
      <trkpt lat="46.44483" lon="2.37237">
        <ele>365.44</ele>
        <time>2014-10-22T12:19:06Z</time>
      </trkpt>
      <trkpt lat="46.4447" lon="2.37212">
        <ele>366.88</ele>
        <time>2014-10-22T12:19:23Z</time>
      </trkpt>
      <trkpt lat="46.44456" lon="2.37189">
        <ele>367.84</ele>
        <time>2014-10-22T12:19:39Z</time>
      </trkpt>
      <trkpt lat="46.44441" lon="2.37165">
        <ele>368.32</ele>
        <time>2014-10-22T12:19:56Z</time>
      </trkpt>
      <trkpt lat="46.44433" lon="2.37152">
        <ele>368.8</ele>
        <time>2014-10-22T12:20:10Z</time>
      </trkpt>
      <trkpt lat="46.44429" lon="2.37139">
        <ele>368.8</ele>
        <time>2014-10-22T12:21:27Z</time>
      </trkpt>
      <trkpt lat="46.44422" lon="2.37128">
        <ele>369.28</ele>
        <time>2014-10-22T12:21:42Z</time>
      </trkpt>
      <trkpt lat="46.4441" lon="2.37107">
        <ele>369.28</ele>
        <time>2014-10-22T12:21:57Z</time>
      </trkpt>
      <trkpt lat="46.44394" lon="2.37081">
        <ele>370.24</ele>
        <time>2014-10-22T12:22:16Z</time>
      </trkpt>
      <trkpt lat="46.4438" lon="2.37058">
        <ele>370.73</ele>
        <time>2014-10-22T12:22:32Z</time>
      </trkpt>
      <trkpt lat="46.44375" lon="2.37045">
        <ele>371.21</ele>
        <time>2014-10-22T12:22:41Z</time>
      </trkpt>
      <trkpt lat="46.44363" lon="2.37024">
        <ele>371.69</ele>
        <time>2014-10-22T12:22:56Z</time>
      </trkpt>
      <trkpt lat="46.44351" lon="2.37006">
        <ele>372.17</ele>
        <time>2014-10-22T12:23:11Z</time>
      </trkpt>
      <trkpt lat="46.44338" lon="2.36986">
        <ele>372.65</ele>
        <time>2014-10-22T12:23:26Z</time>
      </trkpt>
      <trkpt lat="46.44331" lon="2.36975">
        <ele>372.65</ele>
        <time>2014-10-22T12:23:35Z</time>
      </trkpt>
      <trkpt lat="46.44317" lon="2.36956">
        <ele>373.13</ele>
        <time>2014-10-22T12:23:50Z</time>
      </trkpt>
      <trkpt lat="46.44298" lon="2.36932">
        <ele>373.61</ele>
        <time>2014-10-22T12:24:08Z</time>
      </trkpt>
      <trkpt lat="46.44279" lon="2.36905">
        <ele>373.61</ele>
        <time>2014-10-22T12:24:28Z</time>
      </trkpt>
      <trkpt lat="46.44265" lon="2.3688">
        <ele>373.61</ele>
        <time>2014-10-22T12:24:45Z</time>
      </trkpt>
      <trkpt lat="46.44247" lon="2.36858">
        <ele>373.61</ele>
        <time>2014-10-22T12:25:01Z</time>
      </trkpt>
      <trkpt lat="46.44239" lon="2.36843">
        <ele>373.61</ele>
        <time>2014-10-22T12:25:11Z</time>
      </trkpt>
      <trkpt lat="46.44219" lon="2.36814">
        <ele>373.13</ele>
        <time>2014-10-22T12:25:31Z</time>
      </trkpt>
      <trkpt lat="46.44201" lon="2.36784">
        <ele>374.57</ele>
        <time>2014-10-22T12:25:51Z</time>
      </trkpt>
      <trkpt lat="46.44183" lon="2.3676">
        <ele>374.09</ele>
        <time>2014-10-22T12:26:09Z</time>
      </trkpt>
      <trkpt lat="46.44168" lon="2.36747">
        <ele>374.09</ele>
        <time>2014-10-22T12:26:25Z</time>
      </trkpt>
      <trkpt lat="46.44157" lon="2.36743">
        <ele>373.13</ele>
        <time>2014-10-22T12:26:38Z</time>
      </trkpt>
      <trkpt lat="46.44139" lon="2.36734">
        <ele>373.13</ele>
        <time>2014-10-22T12:26:53Z</time>
      </trkpt>
      <trkpt lat="46.44127" lon="2.36732">
        <ele>374.09</ele>
        <time>2014-10-22T12:27:02Z</time>
      </trkpt>
      <trkpt lat="46.44103" lon="2.36723">
        <ele>374.57</ele>
        <time>2014-10-22T12:27:20Z</time>
      </trkpt>
      <trkpt lat="46.44082" lon="2.36723">
        <ele>375.05</ele>
        <time>2014-10-22T12:27:36Z</time>
      </trkpt>
      <trkpt lat="46.44072" lon="2.36723">
        <ele>375.53</ele>
        <time>2014-10-22T12:27:44Z</time>
      </trkpt>
      <trkpt lat="46.44055" lon="2.36706">
        <ele>376.49</ele>
        <time>2014-10-22T12:28:01Z</time>
      </trkpt>
      <trkpt lat="46.44039" lon="2.36685">
        <ele>376.97</ele>
        <time>2014-10-22T12:28:18Z</time>
      </trkpt>
      <trkpt lat="46.44025" lon="2.36667">
        <ele>377.94</ele>
        <time>2014-10-22T12:28:33Z</time>
      </trkpt>
      <trkpt lat="46.4401" lon="2.36649">
        <ele>378.42</ele>
        <time>2014-10-22T12:28:48Z</time>
      </trkpt>
      <trkpt lat="46.43993" lon="2.36629">
        <ele>378.9</ele>
        <time>2014-10-22T12:29:06Z</time>
      </trkpt>
      <trkpt lat="46.43977" lon="2.36609">
        <ele>378.42</ele>
        <time>2014-10-22T12:29:21Z</time>
      </trkpt>
      <trkpt lat="46.4396" lon="2.36587">
        <ele>378.9</ele>
        <time>2014-10-22T12:29:39Z</time>
      </trkpt>
      <trkpt lat="46.43945" lon="2.36568">
        <ele>378.9</ele>
        <time>2014-10-22T12:29:55Z</time>
      </trkpt>
      <trkpt lat="46.43926" lon="2.36546">
        <ele>379.38</ele>
        <time>2014-10-22T12:30:12Z</time>
      </trkpt>
      <trkpt lat="46.43916" lon="2.36533">
        <ele>379.38</ele>
        <time>2014-10-22T12:30:23Z</time>
      </trkpt>
      <trkpt lat="46.43901" lon="2.36513">
        <ele>379.38</ele>
        <time>2014-10-22T12:30:38Z</time>
      </trkpt>
      <trkpt lat="46.439" lon="2.36475">
        <ele>379.38</ele>
        <time>2014-10-22T12:30:57Z</time>
      </trkpt>
      <trkpt lat="46.43912" lon="2.36449">
        <ele>377.94</ele>
        <time>2014-10-22T12:31:12Z</time>
      </trkpt>
      <trkpt lat="46.43926" lon="2.3642">
        <ele>377.45</ele>
        <time>2014-10-22T12:31:28Z</time>
      </trkpt>
      <trkpt lat="46.43934" lon="2.364">
        <ele>377.45</ele>
        <time>2014-10-22T12:31:40Z</time>
      </trkpt>
      <trkpt lat="46.43941" lon="2.36382">
        <ele>377.45</ele>
        <time>2014-10-22T12:32:02Z</time>
      </trkpt>
      <trkpt lat="46.43947" lon="2.36366">
        <ele>376.01</ele>
        <time>2014-10-22T12:32:22Z</time>
      </trkpt>
      <trkpt lat="46.43962" lon="2.36326">
        <ele>376.97</ele>
        <time>2014-10-22T12:32:44Z</time>
      </trkpt>
      <trkpt lat="46.43975" lon="2.36287">
        <ele>377.45</ele>
        <time>2014-10-22T12:33:07Z</time>
      </trkpt>
      <trkpt lat="46.43979" lon="2.36271">
        <ele>377.45</ele>
        <time>2014-10-22T12:33:33Z</time>
      </trkpt>
      <trkpt lat="46.43982" lon="2.36252">
        <ele>376.01</ele>
        <time>2014-10-22T12:33:47Z</time>
      </trkpt>
      <trkpt lat="46.43987" lon="2.36224">
        <ele>375.53</ele>
        <time>2014-10-22T12:34:03Z</time>
      </trkpt>
      <trkpt lat="46.43989" lon="2.36211">
        <ele>375.05</ele>
        <time>2014-10-22T12:34:17Z</time>
      </trkpt>
      <trkpt lat="46.43997" lon="2.36178">
        <ele>374.09</ele>
        <time>2014-10-22T12:34:34Z</time>
      </trkpt>
      <trkpt lat="46.44006" lon="2.36141">
        <ele>373.61</ele>
        <time>2014-10-22T12:34:53Z</time>
      </trkpt>
      <trkpt lat="46.44013" lon="2.36101">
        <ele>374.57</ele>
        <time>2014-10-22T12:35:13Z</time>
      </trkpt>
      <trkpt lat="46.44018" lon="2.36067">
        <ele>374.57</ele>
        <time>2014-10-22T12:35:30Z</time>
      </trkpt>
      <trkpt lat="46.44021" lon="2.36043">
        <ele>375.05</ele>
        <time>2014-10-22T12:35:42Z</time>
      </trkpt>
      <trkpt lat="46.44024" lon="2.36015">
        <ele>375.53</ele>
        <time>2014-10-22T12:35:57Z</time>
      </trkpt>
      <trkpt lat="46.4403" lon="2.35979">
        <ele>376.01</ele>
        <time>2014-10-22T12:36:16Z</time>
      </trkpt>
      <trkpt lat="46.44035" lon="2.35944">
        <ele>376.01</ele>
        <time>2014-10-22T12:36:34Z</time>
      </trkpt>
      <trkpt lat="46.4404" lon="2.35916">
        <ele>376.01</ele>
        <time>2014-10-22T12:36:50Z</time>
      </trkpt>
      <trkpt lat="46.44048" lon="2.3588">
        <ele>376.01</ele>
        <time>2014-10-22T12:37:10Z</time>
      </trkpt>
      <trkpt lat="46.44055" lon="2.35844">
        <ele>375.05</ele>
        <time>2014-10-22T12:37:28Z</time>
      </trkpt>
      <trkpt lat="46.44061" lon="2.35812">
        <ele>375.05</ele>
        <time>2014-10-22T12:37:45Z</time>
      </trkpt>
      <trkpt lat="46.44068" lon="2.35776">
        <ele>375.05</ele>
        <time>2014-10-22T12:38:04Z</time>
      </trkpt>
      <trkpt lat="46.44071" lon="2.35752">
        <ele>375.05</ele>
        <time>2014-10-22T12:38:17Z</time>
      </trkpt>
      <trkpt lat="46.44073" lon="2.3571">
        <ele>374.09</ele>
        <time>2014-10-22T12:38:37Z</time>
      </trkpt>
      <trkpt lat="46.4407" lon="2.35677">
        <ele>373.61</ele>
        <time>2014-10-22T12:38:53Z</time>
      </trkpt>
      <trkpt lat="46.44059" lon="2.35654">
        <ele>373.13</ele>
        <time>2014-10-22T12:39:08Z</time>
      </trkpt>
      <trkpt lat="46.44055" lon="2.35641">
        <ele>372.65</ele>
        <time>2014-10-22T12:39:15Z</time>
      </trkpt>
      <trkpt lat="46.44055" lon="2.35609">
        <ele>372.17</ele>
        <time>2014-10-22T12:39:31Z</time>
      </trkpt>
      <trkpt lat="46.44056" lon="2.35572">
        <ele>371.69</ele>
        <time>2014-10-22T12:39:48Z</time>
      </trkpt>
      <trkpt lat="46.44059" lon="2.35527">
        <ele>370.73</ele>
        <time>2014-10-22T12:40:08Z</time>
      </trkpt>
      <trkpt lat="46.44067" lon="2.3549">
        <ele>369.76</ele>
        <time>2014-10-22T12:40:27Z</time>
      </trkpt>
      <trkpt lat="46.44074" lon="2.35461">
        <ele>369.28</ele>
        <time>2014-10-22T12:40:42Z</time>
      </trkpt>
      <trkpt lat="46.44083" lon="2.35442">
        <ele>368.32</ele>
        <time>2014-10-22T12:40:57Z</time>
      </trkpt>
      <trkpt lat="46.44092" lon="2.35416">
        <ele>366.88</ele>
        <time>2014-10-22T12:41:13Z</time>
      </trkpt>
      <trkpt lat="46.44102" lon="2.35386">
        <ele>365.92</ele>
        <time>2014-10-22T12:41:30Z</time>
      </trkpt>
      <trkpt lat="46.44111" lon="2.35359">
        <ele>364.96</ele>
        <time>2014-10-22T12:41:45Z</time>
      </trkpt>
      <trkpt lat="46.44121" lon="2.35329">
        <ele>364</ele>
        <time>2014-10-22T12:42:01Z</time>
      </trkpt>
      <trkpt lat="46.4413" lon="2.35301">
        <ele>362.07</ele>
        <time>2014-10-22T12:42:17Z</time>
      </trkpt>
      <trkpt lat="46.4414" lon="2.35266">
        <ele>360.15</ele>
        <time>2014-10-22T12:42:35Z</time>
      </trkpt>
      <trkpt lat="46.44143" lon="2.35227">
        <ele>357.75</ele>
        <time>2014-10-22T12:42:55Z</time>
      </trkpt>
      <trkpt lat="46.44138" lon="2.35185">
        <ele>357.27</ele>
        <time>2014-10-22T12:43:15Z</time>
      </trkpt>
      <trkpt lat="46.44129" lon="2.35146">
        <ele>358.23</ele>
        <time>2014-10-22T12:43:33Z</time>
      </trkpt>
      <trkpt lat="46.44125" lon="2.35134">
        <ele>356.79</ele>
        <time>2014-10-22T12:43:40Z</time>
      </trkpt>
      <trkpt lat="46.44117" lon="2.35114">
        <ele>356.31</ele>
        <time>2014-10-22T12:43:51Z</time>
      </trkpt>
      <trkpt lat="46.4411" lon="2.35097">
        <ele>355.34</ele>
        <time>2014-10-22T12:44:01Z</time>
      </trkpt>
      <trkpt lat="46.44127" lon="2.35087">
        <ele>355.34</ele>
        <time>2014-10-22T12:44:17Z</time>
      </trkpt>
      <trkpt lat="46.44151" lon="2.35079">
        <ele>353.9</ele>
        <time>2014-10-22T12:44:36Z</time>
      </trkpt>
      <trkpt lat="46.44184" lon="2.35075">
        <ele>352.94</ele>
        <time>2014-10-22T12:45:01Z</time>
      </trkpt>
      <trkpt lat="46.44211" lon="2.35075">
        <ele>351.98</ele>
        <time>2014-10-22T12:45:20Z</time>
      </trkpt>
      <trkpt lat="46.44235" lon="2.35075">
        <ele>351.5</ele>
        <time>2014-10-22T12:45:37Z</time>
      </trkpt>
      <trkpt lat="46.44264" lon="2.35087">
        <ele>351.5</ele>
        <time>2014-10-22T12:45:57Z</time>
      </trkpt>
      <trkpt lat="46.4428" lon="2.35116">
        <ele>351.5</ele>
        <time>2014-10-22T12:46:16Z</time>
      </trkpt>
      <trkpt lat="46.44293" lon="2.35148">
        <ele>351.5</ele>
        <time>2014-10-22T12:46:34Z</time>
      </trkpt>
      <trkpt lat="46.44311" lon="2.35178">
        <ele>351.5</ele>
        <time>2014-10-22T12:46:54Z</time>
      </trkpt>
      <trkpt lat="46.44328" lon="2.35208">
        <ele>351.5</ele>
        <time>2014-10-22T12:47:14Z</time>
      </trkpt>
      <trkpt lat="46.44345" lon="2.35236">
        <ele>350.54</ele>
        <time>2014-10-22T12:47:32Z</time>
      </trkpt>
      <trkpt lat="46.44355" lon="2.35256">
        <ele>350.06</ele>
        <time>2014-10-22T12:47:49Z</time>
      </trkpt>
      <trkpt lat="46.4438" lon="2.35269">
        <ele>349.58</ele>
        <time>2014-10-22T12:48:19Z</time>
      </trkpt>
      <trkpt lat="46.44401" lon="2.35254">
        <ele>351.5</ele>
        <time>2014-10-22T12:48:36Z</time>
      </trkpt>
      <trkpt lat="46.44419" lon="2.35245">
        <ele>354.86</ele>
        <time>2014-10-22T12:48:51Z</time>
      </trkpt>
      <trkpt lat="46.44437" lon="2.35237">
        <ele>356.31</ele>
        <time>2014-10-22T12:49:08Z</time>
      </trkpt>
      <trkpt lat="46.44441" lon="2.35204">
        <ele>356.31</ele>
        <time>2014-10-22T12:49:39Z</time>
      </trkpt>
      <trkpt lat="46.44442" lon="2.35166">
        <ele>355.34</ele>
        <time>2014-10-22T12:49:58Z</time>
      </trkpt>
      <trkpt lat="46.44444" lon="2.35141">
        <ele>354.86</ele>
        <time>2014-10-22T12:50:13Z</time>
      </trkpt>
      <trkpt lat="46.44446" lon="2.35137">
        <ele>354.86</ele>
        <time>2014-10-22T12:52:42Z</time>
      </trkpt>
      <trkpt lat="46.44447" lon="2.35116">
        <ele>354.86</ele>
        <time>2014-10-22T12:53:01Z</time>
      </trkpt>
      <trkpt lat="46.44446" lon="2.35099">
        <ele>353.42</ele>
        <time>2014-10-22T12:53:15Z</time>
      </trkpt>
      <trkpt lat="46.44443" lon="2.35085">
        <ele>351.5</ele>
        <time>2014-10-22T12:53:24Z</time>
      </trkpt>
      <trkpt lat="46.4444" lon="2.35059">
        <ele>348.62</ele>
        <time>2014-10-22T12:53:41Z</time>
      </trkpt>
      <trkpt lat="46.44439" lon="2.35041">
        <ele>347.65</ele>
        <time>2014-10-22T12:53:54Z</time>
      </trkpt>
      <trkpt lat="46.44439" lon="2.35022">
        <ele>347.17</ele>
        <time>2014-10-22T12:54:10Z</time>
      </trkpt>
      <trkpt lat="46.44442" lon="2.35007">
        <ele>347.17</ele>
        <time>2014-10-22T12:54:20Z</time>
      </trkpt>
      <trkpt lat="46.44448" lon="2.34997">
        <ele>347.17</ele>
        <time>2014-10-22T12:54:33Z</time>
      </trkpt>
      <trkpt lat="46.44455" lon="2.34982">
        <ele>348.62</ele>
        <time>2014-10-22T12:54:47Z</time>
      </trkpt>
      <trkpt lat="46.44464" lon="2.3496">
        <ele>349.58</ele>
        <time>2014-10-22T12:55:02Z</time>
      </trkpt>
      <trkpt lat="46.44476" lon="2.34932">
        <ele>351.5</ele>
        <time>2014-10-22T12:55:21Z</time>
      </trkpt>
      <trkpt lat="46.44478" lon="2.34911">
        <ele>350.06</ele>
        <time>2014-10-22T12:55:32Z</time>
      </trkpt>
      <trkpt lat="46.44478" lon="2.34877">
        <ele>350.06</ele>
        <time>2014-10-22T12:55:50Z</time>
      </trkpt>
      <trkpt lat="46.44476" lon="2.34845">
        <ele>348.62</ele>
        <time>2014-10-22T12:56:07Z</time>
      </trkpt>
      <trkpt lat="46.44481" lon="2.34821">
        <ele>347.65</ele>
        <time>2014-10-22T12:56:22Z</time>
      </trkpt>
      <trkpt lat="46.44482" lon="2.34823">
        <ele>347.17</ele>
        <time>2014-10-22T12:58:26Z</time>
      </trkpt>
      <trkpt lat="46.44478" lon="2.3482">
        <ele>347.65</ele>
        <time>2014-10-22T13:00:20Z</time>
      </trkpt>
      <trkpt lat="46.44482" lon="2.34816">
        <ele>347.17</ele>
        <time>2014-10-22T13:03:27Z</time>
      </trkpt>
      <trkpt lat="46.44476" lon="2.34821">
        <ele>349.58</ele>
        <time>2014-10-22T13:04:50Z</time>
      </trkpt>
      <trkpt lat="46.44481" lon="2.34788">
        <ele>347.17</ele>
        <time>2014-10-22T13:05:20Z</time>
      </trkpt>
      <trkpt lat="46.44485" lon="2.34771">
        <ele>345.73</ele>
        <time>2014-10-22T13:05:33Z</time>
      </trkpt>
      <trkpt lat="46.44496" lon="2.34738">
        <ele>342.85</ele>
        <time>2014-10-22T13:05:52Z</time>
      </trkpt>
      <trkpt lat="46.44502" lon="2.34727">
        <ele>340.44</ele>
        <time>2014-10-22T13:06:27Z</time>
      </trkpt>
      <trkpt lat="46.44508" lon="2.34713">
        <ele>340.44</ele>
        <time>2014-10-22T13:07:03Z</time>
      </trkpt>
      <trkpt lat="46.4452" lon="2.34692">
        <ele>338.52</ele>
        <time>2014-10-22T13:07:20Z</time>
      </trkpt>
      <trkpt lat="46.44536" lon="2.34672">
        <ele>337.08</ele>
        <time>2014-10-22T13:07:37Z</time>
      </trkpt>
      <trkpt lat="46.44551" lon="2.34657">
        <ele>335.64</ele>
        <time>2014-10-22T13:07:54Z</time>
      </trkpt>
      <trkpt lat="46.44561" lon="2.3465">
        <ele>334.68</ele>
        <time>2014-10-22T13:08:14Z</time>
      </trkpt>
      <trkpt lat="46.44582" lon="2.34636">
        <ele>331.79</ele>
        <time>2014-10-22T13:08:34Z</time>
      </trkpt>
      <trkpt lat="46.446" lon="2.34622">
        <ele>330.35</ele>
        <time>2014-10-22T13:08:50Z</time>
      </trkpt>
      <trkpt lat="46.44621" lon="2.34604">
        <ele>328.43</ele>
        <time>2014-10-22T13:09:09Z</time>
      </trkpt>
      <trkpt lat="46.44639" lon="2.3459">
        <ele>326.99</ele>
        <time>2014-10-22T13:09:25Z</time>
      </trkpt>
      <trkpt lat="46.44661" lon="2.34579">
        <ele>325.06</ele>
        <time>2014-10-22T13:09:42Z</time>
      </trkpt>
      <trkpt lat="46.44683" lon="2.34558">
        <ele>323.14</ele>
        <time>2014-10-22T13:10:01Z</time>
      </trkpt>
      <trkpt lat="46.447" lon="2.34545">
        <ele>321.22</ele>
        <time>2014-10-22T13:10:17Z</time>
      </trkpt>
      <trkpt lat="46.44714" lon="2.34534">
        <ele>318.33</ele>
        <time>2014-10-22T13:10:33Z</time>
      </trkpt>
      <trkpt lat="46.44729" lon="2.34527">
        <ele>314.97</ele>
        <time>2014-10-22T13:10:47Z</time>
      </trkpt>
      <trkpt lat="46.44748" lon="2.34514">
        <ele>312.09</ele>
        <time>2014-10-22T13:11:02Z</time>
      </trkpt>
      <trkpt lat="46.44766" lon="2.34501">
        <ele>310.64</ele>
        <time>2014-10-22T13:11:17Z</time>
      </trkpt>
      <trkpt lat="46.44787" lon="2.3449">
        <ele>308.24</ele>
        <time>2014-10-22T13:11:34Z</time>
      </trkpt>
      <trkpt lat="46.44801" lon="2.34483">
        <ele>306.8</ele>
        <time>2014-10-22T13:11:49Z</time>
      </trkpt>
      <trkpt lat="46.44821" lon="2.34481">
        <ele>303.91</ele>
        <time>2014-10-22T13:12:08Z</time>
      </trkpt>
      <trkpt lat="46.44841" lon="2.3449">
        <ele>302.47</ele>
        <time>2014-10-22T13:12:24Z</time>
      </trkpt>
      <trkpt lat="46.44863" lon="2.34493">
        <ele>302.47</ele>
        <time>2014-10-22T13:12:41Z</time>
      </trkpt>
      <trkpt lat="46.44869" lon="2.3448">
        <ele>301.99</ele>
        <time>2014-10-22T13:12:57Z</time>
      </trkpt>
      <trkpt lat="46.44872" lon="2.34468">
        <ele>301.51</ele>
        <time>2014-10-22T13:13:17Z</time>
      </trkpt>
      <trkpt lat="46.4489" lon="2.34465">
        <ele>301.51</ele>
        <time>2014-10-22T13:13:33Z</time>
      </trkpt>
      <trkpt lat="46.44911" lon="2.34473">
        <ele>302.95</ele>
        <time>2014-10-22T13:13:50Z</time>
      </trkpt>
      <trkpt lat="46.44934" lon="2.34483">
        <ele>303.91</ele>
        <time>2014-10-22T13:14:10Z</time>
      </trkpt>
      <trkpt lat="46.44951" lon="2.34496">
        <ele>304.39</ele>
        <time>2014-10-22T13:14:57Z</time>
      </trkpt>
      <trkpt lat="46.4496" lon="2.34504">
        <ele>305.36</ele>
        <time>2014-10-22T13:15:12Z</time>
      </trkpt>
      <trkpt lat="46.44971" lon="2.34512">
        <ele>305.36</ele>
        <time>2014-10-22T13:16:35Z</time>
      </trkpt>
      <trkpt lat="46.44986" lon="2.34525">
        <ele>307.28</ele>
        <time>2014-10-22T13:16:51Z</time>
      </trkpt>
      <trkpt lat="46.45009" lon="2.34539">
        <ele>309.2</ele>
        <time>2014-10-22T13:17:12Z</time>
      </trkpt>
      <trkpt lat="46.45026" lon="2.34545">
        <ele>311.6</ele>
        <time>2014-10-22T13:17:28Z</time>
      </trkpt>
      <trkpt lat="46.45041" lon="2.34551">
        <ele>314.01</ele>
        <time>2014-10-22T13:17:42Z</time>
      </trkpt>
      <trkpt lat="46.45062" lon="2.34555">
        <ele>315.45</ele>
        <time>2014-10-22T13:17:58Z</time>
      </trkpt>
      <trkpt lat="46.45082" lon="2.34562">
        <ele>317.85</ele>
        <time>2014-10-22T13:18:15Z</time>
      </trkpt>
      <trkpt lat="46.45094" lon="2.34575">
        <ele>318.81</ele>
        <time>2014-10-22T13:18:27Z</time>
      </trkpt>
      <trkpt lat="46.45113" lon="2.34599">
        <ele>321.22</ele>
        <time>2014-10-22T13:18:48Z</time>
      </trkpt>
      <trkpt lat="46.45125" lon="2.34618">
        <ele>323.62</ele>
        <time>2014-10-22T13:19:04Z</time>
      </trkpt>
      <trkpt lat="46.45132" lon="2.34633">
        <ele>326.99</ele>
        <time>2014-10-22T13:19:17Z</time>
      </trkpt>
      <trkpt lat="46.45138" lon="2.3465">
        <ele>328.43</ele>
        <time>2014-10-22T13:19:30Z</time>
      </trkpt>
      <trkpt lat="46.45148" lon="2.3467">
        <ele>330.83</ele>
        <time>2014-10-22T13:19:46Z</time>
      </trkpt>
      <trkpt lat="46.45172" lon="2.34701">
        <ele>332.75</ele>
        <time>2014-10-22T13:20:13Z</time>
      </trkpt>
      <trkpt lat="46.45191" lon="2.34722">
        <ele>334.68</ele>
        <time>2014-10-22T13:20:33Z</time>
      </trkpt>
      <trkpt lat="46.45213" lon="2.34733">
        <ele>336.6</ele>
        <time>2014-10-22T13:20:53Z</time>
      </trkpt>
      <trkpt lat="46.45237" lon="2.34735">
        <ele>336.6</ele>
        <time>2014-10-22T13:21:12Z</time>
      </trkpt>
      <trkpt lat="46.45257" lon="2.34738">
        <ele>336.6</ele>
        <time>2014-10-22T13:21:28Z</time>
      </trkpt>
      <trkpt lat="46.45271" lon="2.34743">
        <ele>337.08</ele>
        <time>2014-10-22T13:21:46Z</time>
      </trkpt>
      <trkpt lat="46.45286" lon="2.34748">
        <ele>337.08</ele>
        <time>2014-10-22T13:22:03Z</time>
      </trkpt>
      <trkpt lat="46.45303" lon="2.34754">
        <ele>337.08</ele>
        <time>2014-10-22T13:22:18Z</time>
      </trkpt>
      <trkpt lat="46.45315" lon="2.34756">
        <ele>336.12</ele>
        <time>2014-10-22T13:22:32Z</time>
      </trkpt>
      <trkpt lat="46.4533" lon="2.3476">
        <ele>335.64</ele>
        <time>2014-10-22T13:22:48Z</time>
      </trkpt>
      <trkpt lat="46.45348" lon="2.34764">
        <ele>335.16</ele>
        <time>2014-10-22T13:23:03Z</time>
      </trkpt>
      <trkpt lat="46.45369" lon="2.3477">
        <ele>334.68</ele>
        <time>2014-10-22T13:23:20Z</time>
      </trkpt>
      <trkpt lat="46.45386" lon="2.34774">
        <ele>332.27</ele>
        <time>2014-10-22T13:23:35Z</time>
      </trkpt>
      <trkpt lat="46.45407" lon="2.3478">
        <ele>331.31</ele>
        <time>2014-10-22T13:23:50Z</time>
      </trkpt>
      <trkpt lat="46.4543" lon="2.34789">
        <ele>328.43</ele>
        <time>2014-10-22T13:24:08Z</time>
      </trkpt>
      <trkpt lat="46.45442" lon="2.34801">
        <ele>324.58</ele>
        <time>2014-10-22T13:24:20Z</time>
      </trkpt>
      <trkpt lat="46.45451" lon="2.34815">
        <ele>321.7</ele>
        <time>2014-10-22T13:24:32Z</time>
      </trkpt>
      <trkpt lat="46.45463" lon="2.34806">
        <ele>318.33</ele>
        <time>2014-10-22T13:24:46Z</time>
      </trkpt>
      <trkpt lat="46.45483" lon="2.348">
        <ele>317.37</ele>
        <time>2014-10-22T13:25:04Z</time>
      </trkpt>
      <trkpt lat="46.45492" lon="2.34812">
        <ele>316.41</ele>
        <time>2014-10-22T13:25:18Z</time>
      </trkpt>
      <trkpt lat="46.45507" lon="2.34825">
        <ele>317.85</ele>
        <time>2014-10-22T13:25:34Z</time>
      </trkpt>
      <trkpt lat="46.45542" lon="2.34817">
        <ele>319.78</ele>
        <time>2014-10-22T13:26:01Z</time>
      </trkpt>
      <trkpt lat="46.45558" lon="2.34803">
        <ele>320.74</ele>
        <time>2014-10-22T13:26:17Z</time>
      </trkpt>
      <trkpt lat="46.45571" lon="2.34788">
        <ele>323.62</ele>
        <time>2014-10-22T13:26:32Z</time>
      </trkpt>
      <trkpt lat="46.45586" lon="2.34771">
        <ele>325.06</ele>
        <time>2014-10-22T13:26:50Z</time>
      </trkpt>
      <trkpt lat="46.45596" lon="2.3476">
        <ele>326.99</ele>
        <time>2014-10-22T13:27:01Z</time>
      </trkpt>
      <trkpt lat="46.45608" lon="2.34751">
        <ele>329.39</ele>
        <time>2014-10-22T13:27:17Z</time>
      </trkpt>
      <trkpt lat="46.45616" lon="2.34771">
        <ele>332.75</ele>
        <time>2014-10-22T13:27:34Z</time>
      </trkpt>
      <trkpt lat="46.45622" lon="2.34791">
        <ele>334.2</ele>
        <time>2014-10-22T13:27:56Z</time>
      </trkpt>
      <trkpt lat="46.45633" lon="2.3482">
        <ele>335.16</ele>
        <time>2014-10-22T13:28:15Z</time>
      </trkpt>
      <trkpt lat="46.45645" lon="2.34857">
        <ele>336.12</ele>
        <time>2014-10-22T13:28:36Z</time>
      </trkpt>
      <trkpt lat="46.45664" lon="2.34888">
        <ele>336.6</ele>
        <time>2014-10-22T13:28:58Z</time>
      </trkpt>
      <trkpt lat="46.45682" lon="2.34911">
        <ele>337.08</ele>
        <time>2014-10-22T13:29:15Z</time>
      </trkpt>
      <trkpt lat="46.4569" lon="2.34926">
        <ele>337.08</ele>
        <time>2014-10-22T13:29:32Z</time>
      </trkpt>
      <trkpt lat="46.45697" lon="2.34937">
        <ele>337.56</ele>
        <time>2014-10-22T13:30:14Z</time>
      </trkpt>
      <trkpt lat="46.45701" lon="2.34959">
        <ele>336.12</ele>
        <time>2014-10-22T13:30:26Z</time>
      </trkpt>
      <trkpt lat="46.45703" lon="2.34978">
        <ele>338.04</ele>
        <time>2014-10-22T13:30:38Z</time>
      </trkpt>
      <trkpt lat="46.45701" lon="2.34999">
        <ele>338.04</ele>
        <time>2014-10-22T13:30:51Z</time>
      </trkpt>
      <trkpt lat="46.45685" lon="2.35034">
        <ele>338.04</ele>
        <time>2014-10-22T13:31:11Z</time>
      </trkpt>
      <trkpt lat="46.45667" lon="2.35056">
        <ele>338.04</ele>
        <time>2014-10-22T13:31:29Z</time>
      </trkpt>
      <trkpt lat="46.45661" lon="2.3507">
        <ele>338.52</ele>
        <time>2014-10-22T13:31:44Z</time>
      </trkpt>
      <trkpt lat="46.4566" lon="2.35085">
        <ele>338.52</ele>
        <time>2014-10-22T13:31:58Z</time>
      </trkpt>
      <trkpt lat="46.45657" lon="2.35124">
        <ele>339</ele>
        <time>2014-10-22T13:32:19Z</time>
      </trkpt>
      <trkpt lat="46.45652" lon="2.3516">
        <ele>339.48</ele>
        <time>2014-10-22T13:32:38Z</time>
      </trkpt>
      <trkpt lat="46.4568" lon="2.35183">
        <ele>339.48</ele>
        <time>2014-10-22T13:33:02Z</time>
      </trkpt>
      <trkpt lat="46.45692" lon="2.35214">
        <ele>339.48</ele>
        <time>2014-10-22T13:33:21Z</time>
      </trkpt>
      <trkpt lat="46.45688" lon="2.35245">
        <ele>339.48</ele>
        <time>2014-10-22T13:33:37Z</time>
      </trkpt>
      <trkpt lat="46.45684" lon="2.35277">
        <ele>339.48</ele>
        <time>2014-10-22T13:33:54Z</time>
      </trkpt>
      <trkpt lat="46.45682" lon="2.35292">
        <ele>339.96</ele>
        <time>2014-10-22T13:34:07Z</time>
      </trkpt>
      <trkpt lat="46.45678" lon="2.35311">
        <ele>340.44</ele>
        <time>2014-10-22T13:34:22Z</time>
      </trkpt>
      <trkpt lat="46.45672" lon="2.35347">
        <ele>340.44</ele>
        <time>2014-10-22T13:34:41Z</time>
      </trkpt>
      <trkpt lat="46.45678" lon="2.3536">
        <ele>340.44</ele>
        <time>2014-10-22T13:34:48Z</time>
      </trkpt>
      <trkpt lat="46.45712" lon="2.35357">
        <ele>339</ele>
        <time>2014-10-22T13:35:13Z</time>
      </trkpt>
      <trkpt lat="46.45739" lon="2.35352">
        <ele>337.56</ele>
        <time>2014-10-22T13:35:33Z</time>
      </trkpt>
      <trkpt lat="46.45748" lon="2.35353">
        <ele>337.56</ele>
        <time>2014-10-22T13:35:40Z</time>
      </trkpt>
      <trkpt lat="46.45759" lon="2.35393">
        <ele>337.56</ele>
        <time>2014-10-22T13:36:03Z</time>
      </trkpt>
      <trkpt lat="46.45766" lon="2.35429">
        <ele>337.56</ele>
        <time>2014-10-22T13:36:23Z</time>
      </trkpt>
      <trkpt lat="46.45774" lon="2.35466">
        <ele>338.04</ele>
        <time>2014-10-22T13:36:42Z</time>
      </trkpt>
      <trkpt lat="46.45784" lon="2.3551">
        <ele>338.04</ele>
        <time>2014-10-22T13:37:05Z</time>
      </trkpt>
      <trkpt lat="46.45793" lon="2.35549">
        <ele>338.04</ele>
        <time>2014-10-22T13:37:26Z</time>
      </trkpt>
      <trkpt lat="46.45799" lon="2.35581">
        <ele>338.52</ele>
        <time>2014-10-22T13:37:43Z</time>
      </trkpt>
      <trkpt lat="46.45802" lon="2.35619">
        <ele>339.96</ele>
        <time>2014-10-22T13:38:03Z</time>
      </trkpt>
      <trkpt lat="46.4581" lon="2.35651">
        <ele>340.44</ele>
        <time>2014-10-22T13:38:21Z</time>
      </trkpt>
      <trkpt lat="46.45809" lon="2.3568">
        <ele>340.44</ele>
        <time>2014-10-22T13:38:37Z</time>
      </trkpt>
      <trkpt lat="46.45804" lon="2.35708">
        <ele>340.44</ele>
        <time>2014-10-22T13:38:55Z</time>
      </trkpt>
      <trkpt lat="46.45798" lon="2.35736">
        <ele>340.44</ele>
        <time>2014-10-22T13:39:10Z</time>
      </trkpt>
      <trkpt lat="46.45791" lon="2.35769">
        <ele>340.44</ele>
        <time>2014-10-22T13:39:28Z</time>
      </trkpt>
      <trkpt lat="46.45783" lon="2.35806">
        <ele>341.41</ele>
        <time>2014-10-22T13:39:48Z</time>
      </trkpt>
      <trkpt lat="46.45776" lon="2.35843">
        <ele>341.89</ele>
        <time>2014-10-22T13:40:08Z</time>
      </trkpt>
      <trkpt lat="46.45772" lon="2.35869">
        <ele>342.37</ele>
        <time>2014-10-22T13:40:23Z</time>
      </trkpt>
      <trkpt lat="46.45768" lon="2.35889">
        <ele>342.37</ele>
        <time>2014-10-22T13:40:35Z</time>
      </trkpt>
      <trkpt lat="46.45764" lon="2.35922">
        <ele>342.37</ele>
        <time>2014-10-22T13:40:53Z</time>
      </trkpt>
      <trkpt lat="46.45758" lon="2.35953">
        <ele>342.37</ele>
        <time>2014-10-22T13:41:10Z</time>
      </trkpt>
      <trkpt lat="46.45755" lon="2.35983">
        <ele>342.37</ele>
        <time>2014-10-22T13:41:26Z</time>
      </trkpt>
      <trkpt lat="46.45752" lon="2.36014">
        <ele>340.92</ele>
        <time>2014-10-22T13:41:42Z</time>
      </trkpt>
      <trkpt lat="46.45751" lon="2.36044">
        <ele>340.92</ele>
        <time>2014-10-22T13:41:59Z</time>
      </trkpt>
      <trkpt lat="46.45751" lon="2.36063">
        <ele>340.92</ele>
        <time>2014-10-22T13:42:15Z</time>
      </trkpt>
      <trkpt lat="46.45756" lon="2.36057">
        <ele>340.44</ele>
        <time>2014-10-22T13:43:10Z</time>
      </trkpt>
      <trkpt lat="46.45774" lon="2.36042">
        <ele>339</ele>
        <time>2014-10-22T13:43:27Z</time>
      </trkpt>
      <trkpt lat="46.45791" lon="2.36027">
        <ele>339</ele>
        <time>2014-10-22T13:43:41Z</time>
      </trkpt>
      <trkpt lat="46.45811" lon="2.36007">
        <ele>339</ele>
        <time>2014-10-22T13:43:59Z</time>
      </trkpt>
      <trkpt lat="46.45832" lon="2.35987">
        <ele>338.52</ele>
        <time>2014-10-22T13:44:17Z</time>
      </trkpt>
      <trkpt lat="46.45852" lon="2.35967">
        <ele>338.52</ele>
        <time>2014-10-22T13:44:35Z</time>
      </trkpt>
      <trkpt lat="46.4587" lon="2.35951">
        <ele>338.04</ele>
        <time>2014-10-22T13:44:51Z</time>
      </trkpt>
      <trkpt lat="46.45879" lon="2.35943">
        <ele>337.08</ele>
        <time>2014-10-22T13:45:00Z</time>
      </trkpt>
      <trkpt lat="46.45905" lon="2.35917">
        <ele>336.12</ele>
        <time>2014-10-22T13:45:23Z</time>
      </trkpt>
      <trkpt lat="46.45929" lon="2.35892">
        <ele>335.64</ele>
        <time>2014-10-22T13:45:46Z</time>
      </trkpt>
      <trkpt lat="46.4595" lon="2.35869">
        <ele>334.68</ele>
        <time>2014-10-22T13:46:05Z</time>
      </trkpt>
      <trkpt lat="46.45973" lon="2.3585">
        <ele>332.75</ele>
        <time>2014-10-22T13:46:24Z</time>
      </trkpt>
      <trkpt lat="46.46003" lon="2.35838">
        <ele>330.83</ele>
        <time>2014-10-22T13:46:46Z</time>
      </trkpt>
      <trkpt lat="46.46029" lon="2.35824">
        <ele>330.83</ele>
        <time>2014-10-22T13:47:06Z</time>
      </trkpt>
      <trkpt lat="46.46058" lon="2.35816">
        <ele>331.31</ele>
        <time>2014-10-22T13:47:28Z</time>
      </trkpt>
      <trkpt lat="46.46078" lon="2.35817">
        <ele>331.31</ele>
        <time>2014-10-22T13:47:44Z</time>
      </trkpt>
      <trkpt lat="46.46103" lon="2.35816">
        <ele>330.83</ele>
        <time>2014-10-22T13:48:03Z</time>
      </trkpt>
      <trkpt lat="46.4613" lon="2.35814">
        <ele>331.79</ele>
        <time>2014-10-22T13:48:24Z</time>
      </trkpt>
      <trkpt lat="46.46149" lon="2.35808">
        <ele>331.79</ele>
        <time>2014-10-22T13:48:40Z</time>
      </trkpt>
      <trkpt lat="46.46177" lon="2.35805">
        <ele>330.35</ele>
        <time>2014-10-22T13:49:04Z</time>
      </trkpt>
      <trkpt lat="46.46199" lon="2.35806">
        <ele>328.43</ele>
        <time>2014-10-22T13:49:22Z</time>
      </trkpt>
      <trkpt lat="46.46224" lon="2.35806">
        <ele>327.47</ele>
        <time>2014-10-22T13:49:40Z</time>
      </trkpt>
      <trkpt lat="46.46253" lon="2.35807">
        <ele>326.02</ele>
        <time>2014-10-22T13:50:00Z</time>
      </trkpt>
      <trkpt lat="46.46278" lon="2.35809">
        <ele>323.62</ele>
        <time>2014-10-22T13:50:19Z</time>
      </trkpt>
      <trkpt lat="46.46286" lon="2.35806">
        <ele>323.62</ele>
        <time>2014-10-22T13:50:48Z</time>
      </trkpt>
      <trkpt lat="46.46299" lon="2.35807">
        <ele>322.18</ele>
        <time>2014-10-22T13:51:15Z</time>
      </trkpt>
      <trkpt lat="46.46317" lon="2.35815">
        <ele>321.22</ele>
        <time>2014-10-22T13:51:36Z</time>
      </trkpt>
      <trkpt lat="46.46334" lon="2.35822">
        <ele>321.22</ele>
        <time>2014-10-22T13:52:01Z</time>
      </trkpt>
      <trkpt lat="46.4635" lon="2.35835">
        <ele>319.78</ele>
        <time>2014-10-22T13:52:29Z</time>
      </trkpt>
      <trkpt lat="46.46361" lon="2.35836">
        <ele>319.3</ele>
        <time>2014-10-22T13:52:44Z</time>
      </trkpt>
      <trkpt lat="46.46373" lon="2.35845">
        <ele>317.85</ele>
        <time>2014-10-22T13:52:56Z</time>
      </trkpt>
      <trkpt lat="46.46381" lon="2.35849">
        <ele>317.37</ele>
        <time>2014-10-22T13:53:05Z</time>
      </trkpt>
      <trkpt lat="46.46393" lon="2.35847">
        <ele>316.89</ele>
        <time>2014-10-22T13:53:28Z</time>
      </trkpt>
      <trkpt lat="46.46398" lon="2.35828">
        <ele>316.89</ele>
        <time>2014-10-22T13:53:42Z</time>
      </trkpt>
      <trkpt lat="46.46403" lon="2.35807">
        <ele>316.89</ele>
        <time>2014-10-22T13:54:07Z</time>
      </trkpt>
      <trkpt lat="46.46408" lon="2.35793">
        <ele>318.33</ele>
        <time>2014-10-22T13:54:32Z</time>
      </trkpt>
      <trkpt lat="46.46417" lon="2.35779">
        <ele>318.81</ele>
        <time>2014-10-22T13:54:47Z</time>
      </trkpt>
      <trkpt lat="46.46423" lon="2.35757">
        <ele>319.78</ele>
        <time>2014-10-22T13:55:16Z</time>
      </trkpt>
      <trkpt lat="46.46426" lon="2.35742">
        <ele>319.78</ele>
        <time>2014-10-22T13:55:30Z</time>
      </trkpt>
      <trkpt lat="46.46433" lon="2.35721">
        <ele>320.26</ele>
        <time>2014-10-22T13:55:43Z</time>
      </trkpt>
      <trkpt lat="46.46446" lon="2.35703">
        <ele>320.74</ele>
        <time>2014-10-22T13:56:02Z</time>
      </trkpt>
      <trkpt lat="46.46438" lon="2.35705">
        <ele>320.74</ele>
        <time>2014-10-22T13:56:44Z</time>
      </trkpt>
      <trkpt lat="46.46451" lon="2.35698">
        <ele>320.74</ele>
        <time>2014-10-22T13:57:04Z</time>
      </trkpt>
      <trkpt lat="46.46461" lon="2.35691">
        <ele>320.74</ele>
        <time>2014-10-22T13:57:13Z</time>
      </trkpt>
      <trkpt lat="46.46476" lon="2.35678">
        <ele>320.74</ele>
        <time>2014-10-22T13:57:28Z</time>
      </trkpt>
      <trkpt lat="46.46493" lon="2.35662">
        <ele>320.74</ele>
        <time>2014-10-22T13:57:44Z</time>
      </trkpt>
      <trkpt lat="46.46514" lon="2.35642">
        <ele>318.81</ele>
        <time>2014-10-22T13:58:02Z</time>
      </trkpt>
      <trkpt lat="46.46534" lon="2.35623">
        <ele>318.33</ele>
        <time>2014-10-22T13:58:19Z</time>
      </trkpt>
      <trkpt lat="46.46554" lon="2.35602">
        <ele>317.37</ele>
        <time>2014-10-22T13:58:39Z</time>
      </trkpt>
      <trkpt lat="46.46573" lon="2.35581">
        <ele>316.41</ele>
        <time>2014-10-22T13:58:57Z</time>
      </trkpt>
      <trkpt lat="46.46593" lon="2.35548">
        <ele>316.41</ele>
        <time>2014-10-22T13:59:18Z</time>
      </trkpt>
      <trkpt lat="46.46608" lon="2.3552">
        <ele>315.45</ele>
        <time>2014-10-22T13:59:36Z</time>
      </trkpt>
      <trkpt lat="46.46619" lon="2.35503">
        <ele>314.49</ele>
        <time>2014-10-22T13:59:51Z</time>
      </trkpt>
      <trkpt lat="46.46638" lon="2.35479">
        <ele>312.09</ele>
        <time>2014-10-22T14:00:11Z</time>
      </trkpt>
      <trkpt lat="46.4666" lon="2.35463">
        <ele>311.12</ele>
        <time>2014-10-22T14:00:29Z</time>
      </trkpt>
      <trkpt lat="46.46682" lon="2.35451">
        <ele>310.64</ele>
        <time>2014-10-22T14:00:46Z</time>
      </trkpt>
      <trkpt lat="46.46706" lon="2.35432">
        <ele>309.2</ele>
        <time>2014-10-22T14:01:05Z</time>
      </trkpt>
      <trkpt lat="46.46723" lon="2.35411">
        <ele>307.28</ele>
        <time>2014-10-22T14:01:21Z</time>
      </trkpt>
      <trkpt lat="46.4673" lon="2.35389">
        <ele>306.32</ele>
        <time>2014-10-22T14:01:36Z</time>
      </trkpt>
      <trkpt lat="46.46742" lon="2.35355">
        <ele>303.43</ele>
        <time>2014-10-22T14:01:55Z</time>
      </trkpt>
      <trkpt lat="46.46749" lon="2.35332">
        <ele>302.95</ele>
        <time>2014-10-22T14:02:09Z</time>
      </trkpt>
      <trkpt lat="46.46762" lon="2.35293">
        <ele>301.03</ele>
        <time>2014-10-22T14:02:46Z</time>
      </trkpt>
      <trkpt lat="46.4677" lon="2.35258">
        <ele>299.11</ele>
        <time>2014-10-22T14:03:05Z</time>
      </trkpt>
      <trkpt lat="46.46771" lon="2.3523">
        <ele>296.7</ele>
        <time>2014-10-22T14:03:25Z</time>
      </trkpt>
      <trkpt lat="46.46771" lon="2.35201">
        <ele>294.3</ele>
        <time>2014-10-22T14:03:41Z</time>
      </trkpt>
      <trkpt lat="46.46784" lon="2.352">
        <ele>292.38</ele>
        <time>2014-10-22T14:04:00Z</time>
      </trkpt>
      <trkpt lat="46.4679" lon="2.3522">
        <ele>290.46</ele>
        <time>2014-10-22T14:04:17Z</time>
      </trkpt>
      <trkpt lat="46.46797" lon="2.35242">
        <ele>289.01</ele>
        <time>2014-10-22T14:04:31Z</time>
      </trkpt>
      <trkpt lat="46.46804" lon="2.35275">
        <ele>287.09</ele>
        <time>2014-10-22T14:04:46Z</time>
      </trkpt>
      <trkpt lat="46.46827" lon="2.35256">
        <ele>284.69</ele>
        <time>2014-10-22T14:05:08Z</time>
      </trkpt>
      <trkpt lat="46.46838" lon="2.35244">
        <ele>283.25</ele>
        <time>2014-10-22T14:05:22Z</time>
      </trkpt>
      <trkpt lat="46.46844" lon="2.35224">
        <ele>281.8</ele>
        <time>2014-10-22T14:05:35Z</time>
      </trkpt>
      <trkpt lat="46.46847" lon="2.35205">
        <ele>281.8</ele>
        <time>2014-10-22T14:05:49Z</time>
      </trkpt>
      <trkpt lat="46.46849" lon="2.35181">
        <ele>281.32</ele>
        <time>2014-10-22T14:06:03Z</time>
      </trkpt>
      <trkpt lat="46.46849" lon="2.35152">
        <ele>281.32</ele>
        <time>2014-10-22T14:06:23Z</time>
      </trkpt>
      <trkpt lat="46.46852" lon="2.35139">
        <ele>281.32</ele>
        <time>2014-10-22T14:06:41Z</time>
      </trkpt>
      <trkpt lat="46.46854" lon="2.3513">
        <ele>281.8</ele>
        <time>2014-10-22T14:07:45Z</time>
      </trkpt>
      <trkpt lat="46.46864" lon="2.35135">
        <ele>281.8</ele>
        <time>2014-10-22T14:07:59Z</time>
      </trkpt>
      <trkpt lat="46.46871" lon="2.35146">
        <ele>281.32</ele>
        <time>2014-10-22T14:08:13Z</time>
      </trkpt>
      <trkpt lat="46.4688" lon="2.35155">
        <ele>283.73</ele>
        <time>2014-10-22T14:13:53Z</time>
      </trkpt>
      <trkpt lat="46.46889" lon="2.35161">
        <ele>285.17</ele>
        <time>2014-10-22T14:14:31Z</time>
      </trkpt>
      <trkpt lat="46.469" lon="2.35171">
        <ele>284.21</ele>
        <time>2014-10-22T14:14:49Z</time>
      </trkpt>
      <trkpt lat="46.46921" lon="2.35175">
        <ele>283.25</ele>
        <time>2014-10-22T14:15:11Z</time>
      </trkpt>
      <trkpt lat="46.46948" lon="2.35177">
        <ele>283.73</ele>
        <time>2014-10-22T14:15:35Z</time>
      </trkpt>
      <trkpt lat="46.46971" lon="2.35178">
        <ele>283.25</ele>
        <time>2014-10-22T14:15:51Z</time>
      </trkpt>
      <trkpt lat="46.46986" lon="2.35188">
        <ele>283.25</ele>
        <time>2014-10-22T14:16:06Z</time>
      </trkpt>
      <trkpt lat="46.47003" lon="2.35188">
        <ele>283.25</ele>
        <time>2014-10-22T14:16:20Z</time>
      </trkpt>
      <trkpt lat="46.47027" lon="2.35184">
        <ele>282.77</ele>
        <time>2014-10-22T14:16:35Z</time>
      </trkpt>
      <trkpt lat="46.47044" lon="2.35181">
        <ele>282.77</ele>
        <time>2014-10-22T14:16:50Z</time>
      </trkpt>
      <trkpt lat="46.47059" lon="2.35168">
        <ele>282.77</ele>
        <time>2014-10-22T14:17:06Z</time>
      </trkpt>
      <trkpt lat="46.47072" lon="2.35162">
        <ele>284.69</ele>
        <time>2014-10-22T14:17:22Z</time>
      </trkpt>
      <trkpt lat="46.47086" lon="2.35157">
        <ele>286.61</ele>
        <time>2014-10-22T14:17:37Z</time>
      </trkpt>
      <trkpt lat="46.47102" lon="2.35152">
        <ele>287.09</ele>
        <time>2014-10-22T14:17:53Z</time>
      </trkpt>
      <trkpt lat="46.4712" lon="2.35143">
        <ele>288.05</ele>
        <time>2014-10-22T14:18:07Z</time>
      </trkpt>
      <trkpt lat="46.47128" lon="2.35139">
        <ele>288.05</ele>
        <time>2014-10-22T14:18:13Z</time>
      </trkpt>
      <trkpt lat="46.47152" lon="2.3513">
        <ele>288.05</ele>
        <time>2014-10-22T14:18:31Z</time>
      </trkpt>
      <trkpt lat="46.47163" lon="2.35127">
        <ele>288.05</ele>
        <time>2014-10-22T14:18:39Z</time>
      </trkpt>
      <trkpt lat="46.47184" lon="2.35117">
        <ele>287.09</ele>
        <time>2014-10-22T14:18:57Z</time>
      </trkpt>
      <trkpt lat="46.47207" lon="2.35102">
        <ele>286.61</ele>
        <time>2014-10-22T14:19:16Z</time>
      </trkpt>
      <trkpt lat="46.47226" lon="2.35084">
        <ele>285.17</ele>
        <time>2014-10-22T14:19:33Z</time>
      </trkpt>
      <trkpt lat="46.4724" lon="2.35062">
        <ele>284.69</ele>
        <time>2014-10-22T14:19:50Z</time>
      </trkpt>
      <trkpt lat="46.47251" lon="2.35041">
        <ele>284.69</ele>
        <time>2014-10-22T14:20:05Z</time>
      </trkpt>
      <trkpt lat="46.47259" lon="2.35028">
        <ele>283.73</ele>
        <time>2014-10-22T14:20:14Z</time>
      </trkpt>
      <trkpt lat="46.47282" lon="2.35008">
        <ele>282.77</ele>
        <time>2014-10-22T14:20:34Z</time>
      </trkpt>
      <trkpt lat="46.47291" lon="2.35002">
        <ele>282.77</ele>
        <time>2014-10-22T14:20:40Z</time>
      </trkpt>
      <trkpt lat="46.47299" lon="2.34995">
        <ele>281.8</ele>
        <time>2014-10-22T14:20:48Z</time>
      </trkpt>
      <trkpt lat="46.47308" lon="2.34979">
        <ele>281.8</ele>
        <time>2014-10-22T14:21:00Z</time>
      </trkpt>
      <trkpt lat="46.47306" lon="2.34951">
        <ele>282.77</ele>
        <time>2014-10-22T14:21:17Z</time>
      </trkpt>
      <trkpt lat="46.4731" lon="2.34936">
        <ele>284.21</ele>
        <time>2014-10-22T14:21:49Z</time>
      </trkpt>
      <trkpt lat="46.47324" lon="2.34932">
        <ele>284.21</ele>
        <time>2014-10-22T14:22:06Z</time>
      </trkpt>
      <trkpt lat="46.47338" lon="2.34935">
        <ele>282.77</ele>
        <time>2014-10-22T14:23:00Z</time>
      </trkpt>
      <trkpt lat="46.47342" lon="2.34936">
        <ele>282.28</ele>
        <time>2014-10-22T14:25:12Z</time>
      </trkpt>
      <trkpt lat="46.47343" lon="2.34927">
        <ele>282.28</ele>
        <time>2014-10-22T14:25:47Z</time>
      </trkpt>
      <trkpt lat="46.47338" lon="2.34888">
        <ele>281.32</ele>
        <time>2014-10-22T14:26:11Z</time>
      </trkpt>
      <trkpt lat="46.47342" lon="2.34875">
        <ele>280.84</ele>
        <time>2014-10-22T14:26:26Z</time>
      </trkpt>
      <trkpt lat="46.47353" lon="2.34868">
        <ele>282.28</ele>
        <time>2014-10-22T14:26:39Z</time>
      </trkpt>
      <trkpt lat="46.47369" lon="2.34863">
        <ele>283.73</ele>
        <time>2014-10-22T14:26:55Z</time>
      </trkpt>
      <trkpt lat="46.47386" lon="2.34864">
        <ele>285.65</ele>
        <time>2014-10-22T14:27:10Z</time>
      </trkpt>
      <trkpt lat="46.47405" lon="2.34868">
        <ele>288.53</ele>
        <time>2014-10-22T14:27:28Z</time>
      </trkpt>
      <trkpt lat="46.47416" lon="2.3487">
        <ele>289.97</ele>
        <time>2014-10-22T14:27:38Z</time>
      </trkpt>
      <trkpt lat="46.47436" lon="2.34879">
        <ele>291.42</ele>
        <time>2014-10-22T14:27:57Z</time>
      </trkpt>
      <trkpt lat="46.4745" lon="2.34897">
        <ele>293.82</ele>
        <time>2014-10-22T14:28:16Z</time>
      </trkpt>
      <trkpt lat="46.47462" lon="2.34914">
        <ele>295.26</ele>
        <time>2014-10-22T14:28:32Z</time>
      </trkpt>
      <trkpt lat="46.47474" lon="2.34938">
        <ele>296.22</ele>
        <time>2014-10-22T14:28:47Z</time>
      </trkpt>
      <trkpt lat="46.47489" lon="2.34961">
        <ele>297.67</ele>
        <time>2014-10-22T14:29:04Z</time>
      </trkpt>
      <trkpt lat="46.47499" lon="2.34979">
        <ele>298.63</ele>
        <time>2014-10-22T14:29:18Z</time>
      </trkpt>
      <trkpt lat="46.47509" lon="2.34994">
        <ele>300.07</ele>
        <time>2014-10-22T14:29:31Z</time>
      </trkpt>
      <trkpt lat="46.47517" lon="2.35016">
        <ele>301.51</ele>
        <time>2014-10-22T14:29:46Z</time>
      </trkpt>
      <trkpt lat="46.47527" lon="2.35051">
        <ele>303.43</ele>
        <time>2014-10-22T14:30:04Z</time>
      </trkpt>
      <trkpt lat="46.47533" lon="2.35086">
        <ele>305.36</ele>
        <time>2014-10-22T14:30:24Z</time>
      </trkpt>
      <trkpt lat="46.47534" lon="2.35114">
        <ele>306.8</ele>
        <time>2014-10-22T14:30:41Z</time>
      </trkpt>
      <trkpt lat="46.47533" lon="2.35146">
        <ele>308.24</ele>
        <time>2014-10-22T14:30:58Z</time>
      </trkpt>
      <trkpt lat="46.47532" lon="2.35175">
        <ele>309.2</ele>
        <time>2014-10-22T14:31:14Z</time>
      </trkpt>
      <trkpt lat="46.4753" lon="2.35206">
        <ele>310.16</ele>
        <time>2014-10-22T14:31:31Z</time>
      </trkpt>
      <trkpt lat="46.47528" lon="2.35228">
        <ele>312.57</ele>
        <time>2014-10-22T14:31:45Z</time>
      </trkpt>
      <trkpt lat="46.47546" lon="2.35253">
        <ele>313.53</ele>
        <time>2014-10-22T14:32:05Z</time>
      </trkpt>
      <trkpt lat="46.4756" lon="2.35276">
        <ele>314.97</ele>
        <time>2014-10-22T14:32:20Z</time>
      </trkpt>
      <trkpt lat="46.47575" lon="2.35304">
        <ele>315.93</ele>
        <time>2014-10-22T14:32:38Z</time>
      </trkpt>
      <trkpt lat="46.47589" lon="2.3533">
        <ele>317.37</ele>
        <time>2014-10-22T14:32:56Z</time>
      </trkpt>
      <trkpt lat="46.47602" lon="2.35352">
        <ele>318.33</ele>
        <time>2014-10-22T14:33:13Z</time>
      </trkpt>
      <trkpt lat="46.47614" lon="2.35373">
        <ele>319.3</ele>
        <time>2014-10-22T14:33:29Z</time>
      </trkpt>
      <trkpt lat="46.4762" lon="2.35387">
        <ele>319.78</ele>
        <time>2014-10-22T14:33:36Z</time>
      </trkpt>
      <trkpt lat="46.47637" lon="2.35411">
        <ele>320.74</ele>
        <time>2014-10-22T14:34:01Z</time>
      </trkpt>
      <trkpt lat="46.47651" lon="2.35437">
        <ele>320.74</ele>
        <time>2014-10-22T14:34:19Z</time>
      </trkpt>
      <trkpt lat="46.47661" lon="2.35452">
        <ele>321.7</ele>
        <time>2014-10-22T14:34:32Z</time>
      </trkpt>
      <trkpt lat="46.47675" lon="2.35478">
        <ele>322.66</ele>
        <time>2014-10-22T14:34:48Z</time>
      </trkpt>
      <trkpt lat="46.47689" lon="2.35504">
        <ele>323.14</ele>
        <time>2014-10-22T14:35:05Z</time>
      </trkpt>
      <trkpt lat="46.47702" lon="2.35523">
        <ele>323.62</ele>
        <time>2014-10-22T14:35:20Z</time>
      </trkpt>
      <trkpt lat="46.47715" lon="2.35544">
        <ele>324.1</ele>
        <time>2014-10-22T14:35:36Z</time>
      </trkpt>
      <trkpt lat="46.4773" lon="2.35568">
        <ele>325.06</ele>
        <time>2014-10-22T14:35:53Z</time>
      </trkpt>
      <trkpt lat="46.47745" lon="2.35599">
        <ele>325.54</ele>
        <time>2014-10-22T14:36:12Z</time>
      </trkpt>
      <trkpt lat="46.47762" lon="2.3563">
        <ele>326.99</ele>
        <time>2014-10-22T14:36:33Z</time>
      </trkpt>
      <trkpt lat="46.47777" lon="2.35659">
        <ele>327.47</ele>
        <time>2014-10-22T14:36:52Z</time>
      </trkpt>
      <trkpt lat="46.47789" lon="2.35688">
        <ele>328.91</ele>
        <time>2014-10-22T14:37:10Z</time>
      </trkpt>
      <trkpt lat="46.478" lon="2.3572">
        <ele>329.87</ele>
        <time>2014-10-22T14:37:28Z</time>
      </trkpt>
      <trkpt lat="46.47811" lon="2.35755">
        <ele>331.31</ele>
        <time>2014-10-22T14:37:49Z</time>
      </trkpt>
      <trkpt lat="46.47823" lon="2.35789">
        <ele>332.75</ele>
        <time>2014-10-22T14:38:09Z</time>
      </trkpt>
      <trkpt lat="46.47834" lon="2.35826">
        <ele>334.2</ele>
        <time>2014-10-22T14:38:30Z</time>
      </trkpt>
      <trkpt lat="46.47842" lon="2.35854">
        <ele>334.68</ele>
        <time>2014-10-22T14:38:48Z</time>
      </trkpt>
      <trkpt lat="46.47851" lon="2.35885">
        <ele>334.68</ele>
        <time>2014-10-22T14:39:06Z</time>
      </trkpt>
      <trkpt lat="46.47862" lon="2.35924">
        <ele>335.16</ele>
        <time>2014-10-22T14:39:27Z</time>
      </trkpt>
      <trkpt lat="46.47867" lon="2.35957">
        <ele>336.12</ele>
        <time>2014-10-22T14:39:46Z</time>
      </trkpt>
      <trkpt lat="46.47869" lon="2.35976">
        <ele>335.16</ele>
        <time>2014-10-22T14:39:57Z</time>
      </trkpt>
      <trkpt lat="46.47859" lon="2.35982">
        <ele>336.12</ele>
        <time>2014-10-22T14:40:07Z</time>
      </trkpt>
      <trkpt lat="46.47838" lon="2.35995">
        <ele>337.56</ele>
        <time>2014-10-22T14:40:25Z</time>
      </trkpt>
      <trkpt lat="46.47838" lon="2.36002">
        <ele>337.08</ele>
        <time>2014-10-22T14:41:15Z</time>
      </trkpt>
      <trkpt lat="46.47835" lon="2.36036">
        <ele>338.52</ele>
        <time>2014-10-22T14:41:36Z</time>
      </trkpt>
      <trkpt lat="46.47836" lon="2.36063">
        <ele>339</ele>
        <time>2014-10-22T14:41:53Z</time>
      </trkpt>
      <trkpt lat="46.47838" lon="2.36076">
        <ele>339.48</ele>
        <time>2014-10-22T14:42:05Z</time>
      </trkpt>
      <trkpt lat="46.47838" lon="2.36093">
        <ele>339.48</ele>
        <time>2014-10-22T14:42:22Z</time>
      </trkpt>
      <trkpt lat="46.47841" lon="2.36106">
        <ele>339.48</ele>
        <time>2014-10-22T14:42:36Z</time>
      </trkpt>
      <trkpt lat="46.47841" lon="2.3612">
        <ele>339.96</ele>
        <time>2014-10-22T14:42:48Z</time>
      </trkpt>
      <trkpt lat="46.47842" lon="2.36138">
        <ele>340.44</ele>
        <time>2014-10-22T14:43:02Z</time>
      </trkpt>
      <trkpt lat="46.47844" lon="2.36151">
        <ele>340.44</ele>
        <time>2014-10-22T14:43:15Z</time>
      </trkpt>
      <trkpt lat="46.47843" lon="2.36169">
        <ele>340.44</ele>
        <time>2014-10-22T14:43:36Z</time>
      </trkpt>
      <trkpt lat="46.47844" lon="2.36192">
        <ele>340.92</ele>
        <time>2014-10-22T14:43:52Z</time>
      </trkpt>
      <trkpt lat="46.47848" lon="2.36215">
        <ele>341.41</ele>
        <time>2014-10-22T14:44:09Z</time>
      </trkpt>
      <trkpt lat="46.47848" lon="2.36229">
        <ele>341.89</ele>
        <time>2014-10-22T14:44:21Z</time>
      </trkpt>
      <trkpt lat="46.47848" lon="2.36253">
        <ele>341.89</ele>
        <time>2014-10-22T14:44:37Z</time>
      </trkpt>
      <trkpt lat="46.4785" lon="2.36281">
        <ele>342.85</ele>
        <time>2014-10-22T14:44:56Z</time>
      </trkpt>
      <trkpt lat="46.4785" lon="2.36305">
        <ele>343.81</ele>
        <time>2014-10-22T14:45:12Z</time>
      </trkpt>
      <trkpt lat="46.4785" lon="2.36334">
        <ele>344.29</ele>
        <time>2014-10-22T14:45:28Z</time>
      </trkpt>
      <trkpt lat="46.47852" lon="2.36366">
        <ele>345.25</ele>
        <time>2014-10-22T14:45:46Z</time>
      </trkpt>
      <trkpt lat="46.4785" lon="2.36397">
        <ele>346.21</ele>
        <time>2014-10-22T14:46:05Z</time>
      </trkpt>
      <trkpt lat="46.4785" lon="2.36427">
        <ele>347.17</ele>
        <time>2014-10-22T14:46:22Z</time>
      </trkpt>
      <trkpt lat="46.47852" lon="2.36459">
        <ele>348.62</ele>
        <time>2014-10-22T14:46:41Z</time>
      </trkpt>
      <trkpt lat="46.47854" lon="2.36488">
        <ele>349.1</ele>
        <time>2014-10-22T14:46:58Z</time>
      </trkpt>
      <trkpt lat="46.47854" lon="2.36516">
        <ele>350.06</ele>
        <time>2014-10-22T14:47:15Z</time>
      </trkpt>
      <trkpt lat="46.47855" lon="2.36543">
        <ele>350.54</ele>
        <time>2014-10-22T14:47:30Z</time>
      </trkpt>
      <trkpt lat="46.47854" lon="2.36571">
        <ele>351.02</ele>
        <time>2014-10-22T14:47:46Z</time>
      </trkpt>
      <trkpt lat="46.47856" lon="2.36607">
        <ele>352.46</ele>
        <time>2014-10-22T14:48:05Z</time>
      </trkpt>
      <trkpt lat="46.47859" lon="2.36631">
        <ele>352.94</ele>
        <time>2014-10-22T14:48:21Z</time>
      </trkpt>
      <trkpt lat="46.47864" lon="2.3666">
        <ele>353.42</ele>
        <time>2014-10-22T14:48:39Z</time>
      </trkpt>
      <trkpt lat="46.4787" lon="2.36687">
        <ele>354.38</ele>
        <time>2014-10-22T14:48:55Z</time>
      </trkpt>
      <trkpt lat="46.47879" lon="2.36713">
        <ele>355.34</ele>
        <time>2014-10-22T14:49:10Z</time>
      </trkpt>
      <trkpt lat="46.47871" lon="2.36723">
        <ele>355.34</ele>
        <time>2014-10-22T14:49:24Z</time>
      </trkpt>
      <trkpt lat="46.4785" lon="2.36728">
        <ele>355.34</ele>
        <time>2014-10-22T14:49:44Z</time>
      </trkpt>
      <trkpt lat="46.4783" lon="2.36737">
        <ele>352.46</ele>
        <time>2014-10-22T14:50:02Z</time>
      </trkpt>
      <trkpt lat="46.47819" lon="2.36743">
        <ele>351.02</ele>
        <time>2014-10-22T14:50:12Z</time>
      </trkpt>
      <trkpt lat="46.47802" lon="2.36771">
        <ele>349.1</ele>
        <time>2014-10-22T14:50:35Z</time>
      </trkpt>
      <trkpt lat="46.4779" lon="2.36795">
        <ele>347.65</ele>
        <time>2014-10-22T14:50:52Z</time>
      </trkpt>
      <trkpt lat="46.47778" lon="2.36817">
        <ele>347.65</ele>
        <time>2014-10-22T14:51:07Z</time>
      </trkpt>
      <trkpt lat="46.47766" lon="2.36841">
        <ele>347.65</ele>
        <time>2014-10-22T14:51:24Z</time>
      </trkpt>
      <trkpt lat="46.47753" lon="2.36866">
        <ele>347.65</ele>
        <time>2014-10-22T14:51:42Z</time>
      </trkpt>
      <trkpt lat="46.47738" lon="2.36885">
        <ele>349.1</ele>
        <time>2014-10-22T14:51:59Z</time>
      </trkpt>
      <trkpt lat="46.47719" lon="2.3689">
        <ele>349.58</ele>
        <time>2014-10-22T14:52:16Z</time>
      </trkpt>
      <trkpt lat="46.47699" lon="2.36897">
        <ele>350.06</ele>
        <time>2014-10-22T14:52:34Z</time>
      </trkpt>
      <trkpt lat="46.47679" lon="2.36895">
        <ele>350.54</ele>
        <time>2014-10-22T14:52:51Z</time>
      </trkpt>
      <trkpt lat="46.47663" lon="2.36885">
        <ele>351.5</ele>
        <time>2014-10-22T14:53:07Z</time>
      </trkpt>
      <trkpt lat="46.47639" lon="2.36873">
        <ele>354.38</ele>
        <time>2014-10-22T14:53:31Z</time>
      </trkpt>
      <trkpt lat="46.47626" lon="2.36873">
        <ele>356.79</ele>
        <time>2014-10-22T14:53:44Z</time>
      </trkpt>
      <trkpt lat="46.47609" lon="2.36889">
        <ele>358.23</ele>
        <time>2014-10-22T14:54:02Z</time>
      </trkpt>
      <trkpt lat="46.47593" lon="2.36902">
        <ele>359.19</ele>
        <time>2014-10-22T14:54:18Z</time>
      </trkpt>
      <trkpt lat="46.47576" lon="2.36918">
        <ele>361.11</ele>
        <time>2014-10-22T14:54:35Z</time>
      </trkpt>
      <trkpt lat="46.47557" lon="2.36934">
        <ele>362.07</ele>
        <time>2014-10-22T14:54:54Z</time>
      </trkpt>
      <trkpt lat="46.47542" lon="2.36948">
        <ele>363.52</ele>
        <time>2014-10-22T14:55:13Z</time>
      </trkpt>
      <trkpt lat="46.47525" lon="2.36959">
        <ele>365.44</ele>
        <time>2014-10-22T14:55:31Z</time>
      </trkpt>
      <trkpt lat="46.47513" lon="2.3697">
        <ele>366.88</ele>
        <time>2014-10-22T14:55:47Z</time>
      </trkpt>
      <trkpt lat="46.47496" lon="2.36986">
        <ele>369.28</ele>
        <time>2014-10-22T14:56:04Z</time>
      </trkpt>
      <trkpt lat="46.47481" lon="2.37001">
        <ele>370.73</ele>
        <time>2014-10-22T14:56:21Z</time>
      </trkpt>
      <trkpt lat="46.47472" lon="2.3701">
        <ele>372.17</ele>
        <time>2014-10-22T14:56:32Z</time>
      </trkpt>
      <trkpt lat="46.47475" lon="2.37039">
        <ele>373.13</ele>
        <time>2014-10-22T14:56:50Z</time>
      </trkpt>
      <trkpt lat="46.4748" lon="2.37079">
        <ele>374.09</ele>
        <time>2014-10-22T14:57:11Z</time>
      </trkpt>
      <trkpt lat="46.47474" lon="2.37096">
        <ele>374.57</ele>
        <time>2014-10-22T14:57:23Z</time>
      </trkpt>
      <trkpt lat="46.47455" lon="2.37104">
        <ele>375.05</ele>
        <time>2014-10-22T14:57:38Z</time>
      </trkpt>
      <trkpt lat="46.47427" lon="2.37118">
        <ele>375.05</ele>
        <time>2014-10-22T14:58:01Z</time>
      </trkpt>
      <trkpt lat="46.47407" lon="2.37135">
        <ele>373.13</ele>
        <time>2014-10-22T14:58:19Z</time>
      </trkpt>
      <trkpt lat="46.47395" lon="2.37152">
        <ele>372.17</ele>
        <time>2014-10-22T14:58:33Z</time>
      </trkpt>
      <trkpt lat="46.47388" lon="2.37161">
        <ele>371.21</ele>
        <time>2014-10-22T14:59:00Z</time>
      </trkpt>
      <trkpt lat="46.47369" lon="2.37182">
        <ele>368.8</ele>
        <time>2014-10-22T14:59:27Z</time>
      </trkpt>
      <trkpt lat="46.47358" lon="2.37187">
        <ele>367.84</ele>
        <time>2014-10-22T14:59:37Z</time>
      </trkpt>
      <trkpt lat="46.4734" lon="2.37194">
        <ele>365.92</ele>
        <time>2014-10-22T14:59:53Z</time>
      </trkpt>
      <trkpt lat="46.47322" lon="2.37209">
        <ele>364.48</ele>
        <time>2014-10-22T15:00:22Z</time>
      </trkpt>
      <trkpt lat="46.47303" lon="2.37228">
        <ele>363.04</ele>
        <time>2014-10-22T15:00:40Z</time>
      </trkpt>
      <trkpt lat="46.47292" lon="2.37243">
        <ele>361.59</ele>
        <time>2014-10-22T15:00:54Z</time>
      </trkpt>
      <trkpt lat="46.47284" lon="2.37255">
        <ele>361.11</ele>
        <time>2014-10-22T15:01:20Z</time>
      </trkpt>
      <trkpt lat="46.47276" lon="2.37265">
        <ele>360.15</ele>
        <time>2014-10-22T15:01:35Z</time>
      </trkpt>
      <trkpt lat="46.4726" lon="2.37282">
        <ele>358.71</ele>
        <time>2014-10-22T15:01:52Z</time>
      </trkpt>
      <trkpt lat="46.47248" lon="2.37295">
        <ele>357.27</ele>
        <time>2014-10-22T15:02:07Z</time>
      </trkpt>
      <trkpt lat="46.47223" lon="2.37327">
        <ele>355.34</ele>
        <time>2014-10-22T15:02:37Z</time>
      </trkpt>
      <trkpt lat="46.47203" lon="2.37347">
        <ele>353.9</ele>
        <time>2014-10-22T15:02:56Z</time>
      </trkpt>
      <trkpt lat="46.47201" lon="2.3736">
        <ele>353.9</ele>
        <time>2014-10-22T15:03:20Z</time>
      </trkpt>
      <trkpt lat="46.472" lon="2.3741">
        <ele>354.86</ele>
        <time>2014-10-22T15:03:50Z</time>
      </trkpt>
      <trkpt lat="46.47182" lon="2.37437">
        <ele>354.86</ele>
        <time>2014-10-22T15:04:09Z</time>
      </trkpt>
      <trkpt lat="46.47166" lon="2.37459">
        <ele>354.86</ele>
        <time>2014-10-22T15:04:26Z</time>
      </trkpt>
      <trkpt lat="46.47154" lon="2.3747">
        <ele>355.83</ele>
        <time>2014-10-22T15:04:45Z</time>
      </trkpt>
      <trkpt lat="46.47123" lon="2.37474">
        <ele>355.83</ele>
        <time>2014-10-22T15:05:12Z</time>
      </trkpt>
      <trkpt lat="46.47099" lon="2.37467">
        <ele>355.34</ele>
        <time>2014-10-22T15:05:30Z</time>
      </trkpt>
      <trkpt lat="46.47079" lon="2.37464">
        <ele>354.38</ele>
        <time>2014-10-22T15:05:47Z</time>
      </trkpt>
      <trkpt lat="46.47059" lon="2.37488">
        <ele>352.46</ele>
        <time>2014-10-22T15:06:33Z</time>
      </trkpt>
      <trkpt lat="46.47046" lon="2.37514">
        <ele>350.54</ele>
        <time>2014-10-22T15:06:50Z</time>
      </trkpt>
      <trkpt lat="46.4703" lon="2.37539">
        <ele>348.62</ele>
        <time>2014-10-22T15:07:07Z</time>
      </trkpt>
      <trkpt lat="46.47023" lon="2.37568">
        <ele>346.69</ele>
        <time>2014-10-22T15:07:24Z</time>
      </trkpt>
      <trkpt lat="46.47023" lon="2.37584">
        <ele>345.73</ele>
        <time>2014-10-22T15:09:20Z</time>
      </trkpt>
      <trkpt lat="46.47031" lon="2.37612">
        <ele>344.77</ele>
        <time>2014-10-22T15:09:37Z</time>
      </trkpt>
      <trkpt lat="46.4704" lon="2.37643">
        <ele>343.33</ele>
        <time>2014-10-22T15:09:56Z</time>
      </trkpt>
      <trkpt lat="46.4705" lon="2.37673">
        <ele>343.33</ele>
        <time>2014-10-22T15:10:15Z</time>
      </trkpt>
      <trkpt lat="46.47059" lon="2.37696">
        <ele>343.33</ele>
        <time>2014-10-22T15:10:31Z</time>
      </trkpt>
      <trkpt lat="46.47074" lon="2.37726">
        <ele>343.33</ele>
        <time>2014-10-22T15:10:50Z</time>
      </trkpt>
      <trkpt lat="46.47083" lon="2.37761">
        <ele>344.29</ele>
        <time>2014-10-22T15:11:11Z</time>
      </trkpt>
      <trkpt lat="46.47084" lon="2.37783">
        <ele>345.25</ele>
        <time>2014-10-22T15:11:25Z</time>
      </trkpt>
      <trkpt lat="46.47081" lon="2.37798">
        <ele>345.73</ele>
        <time>2014-10-22T15:11:35Z</time>
      </trkpt>
      <trkpt lat="46.47073" lon="2.37828">
        <ele>346.69</ele>
        <time>2014-10-22T15:11:56Z</time>
      </trkpt>
      <trkpt lat="46.47067" lon="2.37848">
        <ele>348.13</ele>
        <time>2014-10-22T15:12:11Z</time>
      </trkpt>
      <trkpt lat="46.47062" lon="2.37865">
        <ele>350.06</ele>
        <time>2014-10-22T15:12:25Z</time>
      </trkpt>
      <trkpt lat="46.47051" lon="2.37892">
        <ele>352.46</ele>
        <time>2014-10-22T15:12:44Z</time>
      </trkpt>
      <trkpt lat="46.47034" lon="2.37905">
        <ele>353.42</ele>
        <time>2014-10-22T15:13:01Z</time>
      </trkpt>
      <trkpt lat="46.47021" lon="2.3791">
        <ele>354.86</ele>
        <time>2014-10-22T15:13:15Z</time>
      </trkpt>
      <trkpt lat="46.47001" lon="2.3792">
        <ele>354.86</ele>
        <time>2014-10-22T15:13:43Z</time>
      </trkpt>
      <trkpt lat="46.46992" lon="2.37927">
        <ele>355.34</ele>
        <time>2014-10-22T15:13:57Z</time>
      </trkpt>
      <trkpt lat="46.46974" lon="2.37957">
        <ele>355.83</ele>
        <time>2014-10-22T15:14:21Z</time>
      </trkpt>
      <trkpt lat="46.46964" lon="2.37979">
        <ele>355.83</ele>
        <time>2014-10-22T15:14:37Z</time>
      </trkpt>
      <trkpt lat="46.46956" lon="2.37994">
        <ele>353.9</ele>
        <time>2014-10-22T15:14:48Z</time>
      </trkpt>
      <trkpt lat="46.46938" lon="2.38018">
        <ele>352.46</ele>
        <time>2014-10-22T15:15:05Z</time>
      </trkpt>
      <trkpt lat="46.46921" lon="2.38044">
        <ele>350.06</ele>
        <time>2014-10-22T15:15:23Z</time>
      </trkpt>
      <trkpt lat="46.46903" lon="2.38072">
        <ele>347.65</ele>
        <time>2014-10-22T15:15:43Z</time>
      </trkpt>
      <trkpt lat="46.46885" lon="2.38096">
        <ele>345.25</ele>
        <time>2014-10-22T15:16:02Z</time>
      </trkpt>
      <trkpt lat="46.46869" lon="2.38116">
        <ele>342.37</ele>
        <time>2014-10-22T15:16:17Z</time>
      </trkpt>
      <trkpt lat="46.46854" lon="2.38141">
        <ele>339.48</ele>
        <time>2014-10-22T15:16:34Z</time>
      </trkpt>
      <trkpt lat="46.46842" lon="2.38168">
        <ele>336.6</ele>
        <time>2014-10-22T15:16:50Z</time>
      </trkpt>
      <trkpt lat="46.46838" lon="2.38195">
        <ele>334.68</ele>
        <time>2014-10-22T15:17:12Z</time>
      </trkpt>
      <trkpt lat="46.46835" lon="2.38225">
        <ele>332.75</ele>
        <time>2014-10-22T15:17:28Z</time>
      </trkpt>
      <trkpt lat="46.46838" lon="2.38267">
        <ele>331.79</ele>
        <time>2014-10-22T15:17:49Z</time>
      </trkpt>
      <trkpt lat="46.46844" lon="2.38304">
        <ele>331.31</ele>
        <time>2014-10-22T15:18:09Z</time>
      </trkpt>
      <trkpt lat="46.46851" lon="2.38337">
        <ele>331.31</ele>
        <time>2014-10-22T15:18:27Z</time>
      </trkpt>
      <trkpt lat="46.46855" lon="2.3837">
        <ele>332.27</ele>
        <time>2014-10-22T15:18:45Z</time>
      </trkpt>
      <trkpt lat="46.46844" lon="2.38374">
        <ele>332.27</ele>
        <time>2014-10-22T15:18:57Z</time>
      </trkpt>
      <trkpt lat="46.46822" lon="2.38371">
        <ele>332.27</ele>
        <time>2014-10-22T15:19:14Z</time>
      </trkpt>
      <trkpt lat="46.46799" lon="2.38365">
        <ele>332.27</ele>
        <time>2014-10-22T15:19:32Z</time>
      </trkpt>
      <trkpt lat="46.46777" lon="2.38359">
        <ele>333.71</ele>
        <time>2014-10-22T15:19:49Z</time>
      </trkpt>
      <trkpt lat="46.46756" lon="2.38364">
        <ele>335.16</ele>
        <time>2014-10-22T15:20:05Z</time>
      </trkpt>
      <trkpt lat="46.46744" lon="2.38384">
        <ele>336.6</ele>
        <time>2014-10-22T15:20:20Z</time>
      </trkpt>
      <trkpt lat="46.46731" lon="2.38408">
        <ele>339.48</ele>
        <time>2014-10-22T15:20:37Z</time>
      </trkpt>
      <trkpt lat="46.46721" lon="2.38414">
        <ele>340.92</ele>
        <time>2014-10-22T15:20:47Z</time>
      </trkpt>
      <trkpt lat="46.46695" lon="2.38395">
        <ele>340.44</ele>
        <time>2014-10-22T15:21:11Z</time>
      </trkpt>
      <trkpt lat="46.46673" lon="2.38378">
        <ele>339.96</ele>
        <time>2014-10-22T15:21:29Z</time>
      </trkpt>
      <trkpt lat="46.46647" lon="2.38358">
        <ele>339.48</ele>
        <time>2014-10-22T15:21:50Z</time>
      </trkpt>
      <trkpt lat="46.46622" lon="2.3834">
        <ele>339.48</ele>
        <time>2014-10-22T15:22:10Z</time>
      </trkpt>
      <trkpt lat="46.46608" lon="2.38331">
        <ele>340.44</ele>
        <time>2014-10-22T15:22:37Z</time>
      </trkpt>
      <trkpt lat="46.4658" lon="2.38311">
        <ele>340.44</ele>
        <time>2014-10-22T15:22:59Z</time>
      </trkpt>
      <trkpt lat="46.4657" lon="2.38304">
        <ele>340.44</ele>
        <time>2014-10-22T15:23:12Z</time>
      </trkpt>
      <trkpt lat="46.46547" lon="2.38295">
        <ele>340.44</ele>
        <time>2014-10-22T15:23:29Z</time>
      </trkpt>
      <trkpt lat="46.46534" lon="2.38288">
        <ele>340.44</ele>
        <time>2014-10-22T15:23:39Z</time>
      </trkpt>
      <trkpt lat="46.46507" lon="2.3828">
        <ele>338.52</ele>
        <time>2014-10-22T15:24:01Z</time>
      </trkpt>
      <trkpt lat="46.46486" lon="2.38281">
        <ele>338.04</ele>
        <time>2014-10-22T15:24:17Z</time>
      </trkpt>
      <trkpt lat="46.46462" lon="2.38291">
        <ele>337.08</ele>
        <time>2014-10-22T15:24:37Z</time>
      </trkpt>
      <trkpt lat="46.4644" lon="2.38318">
        <ele>335.16</ele>
        <time>2014-10-22T15:24:59Z</time>
      </trkpt>
      <trkpt lat="46.46422" lon="2.38342">
        <ele>334.2</ele>
        <time>2014-10-22T15:25:15Z</time>
      </trkpt>
      <trkpt lat="46.46402" lon="2.38368">
        <ele>332.75</ele>
        <time>2014-10-22T15:25:35Z</time>
      </trkpt>
      <trkpt lat="46.46388" lon="2.38381">
        <ele>331.79</ele>
        <time>2014-10-22T15:25:47Z</time>
      </trkpt>
      <trkpt lat="46.46362" lon="2.38384">
        <ele>329.87</ele>
        <time>2014-10-22T15:26:07Z</time>
      </trkpt>
      <trkpt lat="46.46353" lon="2.38365">
        <ele>327.47</ele>
        <time>2014-10-22T15:27:10Z</time>
      </trkpt>
      <trkpt lat="46.46347" lon="2.3834">
        <ele>324.1</ele>
        <time>2014-10-22T15:27:26Z</time>
      </trkpt>
      <trkpt lat="46.46339" lon="2.38312">
        <ele>321.7</ele>
        <time>2014-10-22T15:27:43Z</time>
      </trkpt>
      <trkpt lat="46.46331" lon="2.38284">
        <ele>318.81</ele>
        <time>2014-10-22T15:28:00Z</time>
      </trkpt>
      <trkpt lat="46.46322" lon="2.3826">
        <ele>315.93</ele>
        <time>2014-10-22T15:28:17Z</time>
      </trkpt>
      <trkpt lat="46.46309" lon="2.3824">
        <ele>314.49</ele>
        <time>2014-10-22T15:28:32Z</time>
      </trkpt>
      <trkpt lat="46.46294" lon="2.38219">
        <ele>313.53</ele>
        <time>2014-10-22T15:28:48Z</time>
      </trkpt>
      <trkpt lat="46.46282" lon="2.3821">
        <ele>312.57</ele>
        <time>2014-10-22T15:29:02Z</time>
      </trkpt>
      <trkpt lat="46.46267" lon="2.38201">
        <ele>312.09</ele>
        <time>2014-10-22T15:29:18Z</time>
      </trkpt>
      <trkpt lat="46.4625" lon="2.38189">
        <ele>310.64</ele>
        <time>2014-10-22T15:29:40Z</time>
      </trkpt>
      <trkpt lat="46.46245" lon="2.38185">
        <ele>312.09</ele>
        <time>2014-10-22T15:30:46Z</time>
      </trkpt>
      <trkpt lat="46.4624" lon="2.38167">
        <ele>314.49</ele>
        <time>2014-10-22T15:31:46Z</time>
      </trkpt>
      <trkpt lat="46.46236" lon="2.38138">
        <ele>315.93</ele>
        <time>2014-10-22T15:32:05Z</time>
      </trkpt>
      <trkpt lat="46.46234" lon="2.3812">
        <ele>316.89</ele>
        <time>2014-10-22T15:32:16Z</time>
      </trkpt>
      <trkpt lat="46.46231" lon="2.38092">
        <ele>318.33</ele>
        <time>2014-10-22T15:32:33Z</time>
      </trkpt>
      <trkpt lat="46.46225" lon="2.38067">
        <ele>320.74</ele>
        <time>2014-10-22T15:32:50Z</time>
      </trkpt>
      <trkpt lat="46.46222" lon="2.38052">
        <ele>321.22</ele>
        <time>2014-10-22T15:32:59Z</time>
      </trkpt>
      <trkpt lat="46.46219" lon="2.38027">
        <ele>323.62</ele>
        <time>2014-10-22T15:33:16Z</time>
      </trkpt>
      <trkpt lat="46.46215" lon="2.38001">
        <ele>326.02</ele>
        <time>2014-10-22T15:33:33Z</time>
      </trkpt>
      <trkpt lat="46.46212" lon="2.37978">
        <ele>327.95</ele>
        <time>2014-10-22T15:33:49Z</time>
      </trkpt>
      <trkpt lat="46.46203" lon="2.37965">
        <ele>329.87</ele>
        <time>2014-10-22T15:34:05Z</time>
      </trkpt>
      <trkpt lat="46.46194" lon="2.37963">
        <ele>331.79</ele>
        <time>2014-10-22T15:34:19Z</time>
      </trkpt>
      <trkpt lat="46.46184" lon="2.37965">
        <ele>333.23</ele>
        <time>2014-10-22T15:34:33Z</time>
      </trkpt>
      <trkpt lat="46.46162" lon="2.37965">
        <ele>335.16</ele>
        <time>2014-10-22T15:35:10Z</time>
      </trkpt>
      <trkpt lat="46.46148" lon="2.37948">
        <ele>336.6</ele>
        <time>2014-10-22T15:35:27Z</time>
      </trkpt>
      <trkpt lat="46.46134" lon="2.37922">
        <ele>337.56</ele>
        <time>2014-10-22T15:35:45Z</time>
      </trkpt>
      <trkpt lat="46.46118" lon="2.37891">
        <ele>337.56</ele>
        <time>2014-10-22T15:36:08Z</time>
      </trkpt>
      <trkpt lat="46.461" lon="2.3787">
        <ele>337.56</ele>
        <time>2014-10-22T15:36:30Z</time>
      </trkpt>
      <trkpt lat="46.46087" lon="2.37857">
        <ele>336.6</ele>
        <time>2014-10-22T15:36:45Z</time>
      </trkpt>
      <trkpt lat="46.46085" lon="2.37859">
        <ele>337.08</ele>
        <time>2014-10-22T15:40:15Z</time>
      </trkpt>
      <trkpt lat="46.46079" lon="2.37853">
        <ele>337.08</ele>
        <time>2014-10-22T15:40:44Z</time>
      </trkpt>
      <trkpt lat="46.46075" lon="2.3785">
        <ele>337.08</ele>
        <time>2014-10-22T15:41:02Z</time>
      </trkpt>
    </trkseg>
  </trk>
</gpx>